<?xml version="1.0" encoding="UTF-8" standalone="no" ?>
<gpx xmlns="http://www.topografix.com/GPX/1/1" xmlns:xsi="http://www.w3.org/2001/XMLSchema-instance" xsi:schemaLocation="http://www.topografix.com/GPX/1/1 http://www.topografix.com/GPX/1/1/gpx.xsd" version="1.1" creator="VisuGPX - https://www.visugpx.com">
  <metadata>
    <name>Gorges d'Omblèze - Canyon des Gueulards</name>
    <desc><![CDATA[Remontée du canyon des Gueulards avec quelques passages équipés faciles.
On atteint ensuite le GR 9 que l'on suit jusqu'au Chaffal.
Petit sentier descendant ensuite.]]></desc>
  </metadata>
  <trk>
    <name><![CDATA[Omblèze - cirque des Gueulards]]></name>
    <trkseg>
      <trkpt lat="44.84113" lon="5.18911">
        <ele>595.67</ele>
        <time>2018-04-01T08:37:58Z</time>
      </trkpt>
      <trkpt lat="44.84113" lon="5.18911">
        <ele>594.23</ele>
        <time>2018-04-01T08:38:00Z</time>
      </trkpt>
      <trkpt lat="44.84113" lon="5.18913">
        <ele>594.71</ele>
        <time>2018-04-01T08:38:05Z</time>
      </trkpt>
      <trkpt lat="44.84112" lon="5.18913">
        <ele>595.19</ele>
        <time>2018-04-01T08:38:10Z</time>
      </trkpt>
      <trkpt lat="44.84112" lon="5.18912">
        <ele>596.15</ele>
        <time>2018-04-01T08:38:22Z</time>
      </trkpt>
      <trkpt lat="44.84112" lon="5.1891">
        <ele>594.23</ele>
        <time>2018-04-01T08:38:23Z</time>
      </trkpt>
      <trkpt lat="44.84112" lon="5.1891">
        <ele>595.19</ele>
        <time>2018-04-01T08:38:25Z</time>
      </trkpt>
      <trkpt lat="44.84112" lon="5.18911">
        <ele>594.71</ele>
        <time>2018-04-01T08:38:38Z</time>
      </trkpt>
      <trkpt lat="44.84111" lon="5.1891">
        <ele>594.23</ele>
        <time>2018-04-01T08:39:01Z</time>
      </trkpt>
      <trkpt lat="44.84117" lon="5.18915">
        <ele>593.75</ele>
        <time>2018-04-01T08:39:27Z</time>
      </trkpt>
      <trkpt lat="44.8412" lon="5.18911">
        <ele>594.71</ele>
        <time>2018-04-01T08:40:01Z</time>
      </trkpt>
      <trkpt lat="44.84119" lon="5.18903">
        <ele>595.19</ele>
        <time>2018-04-01T08:40:33Z</time>
      </trkpt>
      <trkpt lat="44.84115" lon="5.18913">
        <ele>595.19</ele>
        <time>2018-04-01T08:41:00Z</time>
      </trkpt>
      <trkpt lat="44.84116" lon="5.18905">
        <ele>595.19</ele>
        <time>2018-04-01T08:41:31Z</time>
      </trkpt>
      <trkpt lat="44.8412" lon="5.18904">
        <ele>594.71</ele>
        <time>2018-04-01T08:42:02Z</time>
      </trkpt>
      <trkpt lat="44.84119" lon="5.18902">
        <ele>594.23</ele>
        <time>2018-04-01T08:42:30Z</time>
      </trkpt>
      <trkpt lat="44.84124" lon="5.189">
        <ele>593.75</ele>
        <time>2018-04-01T08:42:52Z</time>
      </trkpt>
      <trkpt lat="44.84133" lon="5.18897">
        <ele>594.23</ele>
        <time>2018-04-01T08:43:24Z</time>
      </trkpt>
      <trkpt lat="44.84134" lon="5.18896">
        <ele>594.23</ele>
        <time>2018-04-01T08:43:53Z</time>
      </trkpt>
      <trkpt lat="44.84134" lon="5.18896">
        <ele>594.23</ele>
        <time>2018-04-01T08:44:07Z</time>
      </trkpt>
      <trkpt lat="44.84133" lon="5.18899">
        <ele>595.19</ele>
        <time>2018-04-01T08:44:19Z</time>
      </trkpt>
      <trkpt lat="44.84134" lon="5.18898">
        <ele>597.6</ele>
        <time>2018-04-01T08:44:27Z</time>
      </trkpt>
      <trkpt lat="44.84134" lon="5.18887">
        <ele>598.08</ele>
        <time>2018-04-01T08:44:44Z</time>
      </trkpt>
      <trkpt lat="44.84135" lon="5.18883">
        <ele>600.48</ele>
        <time>2018-04-01T08:44:56Z</time>
      </trkpt>
      <trkpt lat="44.84137" lon="5.1888">
        <ele>601.92</ele>
        <time>2018-04-01T08:45:08Z</time>
      </trkpt>
      <trkpt lat="44.84141" lon="5.18875">
        <ele>602.4</ele>
        <time>2018-04-01T08:45:09Z</time>
      </trkpt>
      <trkpt lat="44.84144" lon="5.18874">
        <ele>605.29</ele>
        <time>2018-04-01T08:45:23Z</time>
      </trkpt>
      <trkpt lat="44.84153" lon="5.18868">
        <ele>608.65</ele>
        <time>2018-04-01T08:45:38Z</time>
      </trkpt>
      <trkpt lat="44.84163" lon="5.18864">
        <ele>611.06</ele>
        <time>2018-04-01T08:45:51Z</time>
      </trkpt>
      <trkpt lat="44.84171" lon="5.18855">
        <ele>613.94</ele>
        <time>2018-04-01T08:46:05Z</time>
      </trkpt>
      <trkpt lat="44.84179" lon="5.18842">
        <ele>615.86</ele>
        <time>2018-04-01T08:46:22Z</time>
      </trkpt>
      <trkpt lat="44.84178" lon="5.18837">
        <ele>619.23</ele>
        <time>2018-04-01T08:46:37Z</time>
      </trkpt>
      <trkpt lat="44.84171" lon="5.18837">
        <ele>622.59</ele>
        <time>2018-04-01T08:46:51Z</time>
      </trkpt>
      <trkpt lat="44.84161" lon="5.18828">
        <ele>624.99</ele>
        <time>2018-04-01T08:47:10Z</time>
      </trkpt>
      <trkpt lat="44.84157" lon="5.18824">
        <ele>627.88</ele>
        <time>2018-04-01T08:47:23Z</time>
      </trkpt>
      <trkpt lat="44.8416" lon="5.18824">
        <ele>629.8</ele>
        <time>2018-04-01T08:47:37Z</time>
      </trkpt>
      <trkpt lat="44.84167" lon="5.18817">
        <ele>631.72</ele>
        <time>2018-04-01T08:47:51Z</time>
      </trkpt>
      <trkpt lat="44.84175" lon="5.18811">
        <ele>633.17</ele>
        <time>2018-04-01T08:48:05Z</time>
      </trkpt>
      <trkpt lat="44.84184" lon="5.18804">
        <ele>635.57</ele>
        <time>2018-04-01T08:48:18Z</time>
      </trkpt>
      <trkpt lat="44.84185" lon="5.18804">
        <ele>635.57</ele>
        <time>2018-04-01T08:48:19Z</time>
      </trkpt>
      <trkpt lat="44.84195" lon="5.18805">
        <ele>637.01</ele>
        <time>2018-04-01T08:48:31Z</time>
      </trkpt>
      <trkpt lat="44.84204" lon="5.18805">
        <ele>639.41</ele>
        <time>2018-04-01T08:48:43Z</time>
      </trkpt>
      <trkpt lat="44.84209" lon="5.18803">
        <ele>642.3</ele>
        <time>2018-04-01T08:48:57Z</time>
      </trkpt>
      <trkpt lat="44.84215" lon="5.18802">
        <ele>645.18</ele>
        <time>2018-04-01T08:49:10Z</time>
      </trkpt>
      <trkpt lat="44.84224" lon="5.18807">
        <ele>647.59</ele>
        <time>2018-04-01T08:49:24Z</time>
      </trkpt>
      <trkpt lat="44.84229" lon="5.18814">
        <ele>649.99</ele>
        <time>2018-04-01T08:49:37Z</time>
      </trkpt>
      <trkpt lat="44.84228" lon="5.1882">
        <ele>649.99</ele>
        <time>2018-04-01T08:49:47Z</time>
      </trkpt>
      <trkpt lat="44.84225" lon="5.18828">
        <ele>651.43</ele>
        <time>2018-04-01T08:50:01Z</time>
      </trkpt>
      <trkpt lat="44.84218" lon="5.18837">
        <ele>651.91</ele>
        <time>2018-04-01T08:50:14Z</time>
      </trkpt>
      <trkpt lat="44.8422" lon="5.1885">
        <ele>651.91</ele>
        <time>2018-04-01T08:50:29Z</time>
      </trkpt>
      <trkpt lat="44.84223" lon="5.18862">
        <ele>652.87</ele>
        <time>2018-04-01T08:50:45Z</time>
      </trkpt>
      <trkpt lat="44.84222" lon="5.18862">
        <ele>652.87</ele>
        <time>2018-04-01T08:51:01Z</time>
      </trkpt>
      <trkpt lat="44.84225" lon="5.18865">
        <ele>652.87</ele>
        <time>2018-04-01T08:51:20Z</time>
      </trkpt>
      <trkpt lat="44.84231" lon="5.18865">
        <ele>653.35</ele>
        <time>2018-04-01T08:51:37Z</time>
      </trkpt>
      <trkpt lat="44.8424" lon="5.18876">
        <ele>655.28</ele>
        <time>2018-04-01T08:51:50Z</time>
      </trkpt>
      <trkpt lat="44.84248" lon="5.18874">
        <ele>654.31</ele>
        <time>2018-04-01T08:52:00Z</time>
      </trkpt>
      <trkpt lat="44.84254" lon="5.1887">
        <ele>656.24</ele>
        <time>2018-04-01T08:52:06Z</time>
      </trkpt>
      <trkpt lat="44.84266" lon="5.18857">
        <ele>656.72</ele>
        <time>2018-04-01T08:52:21Z</time>
      </trkpt>
      <trkpt lat="44.8427" lon="5.18854">
        <ele>656.24</ele>
        <time>2018-04-01T08:52:25Z</time>
      </trkpt>
      <trkpt lat="44.84278" lon="5.18846">
        <ele>657.2</ele>
        <time>2018-04-01T08:52:37Z</time>
      </trkpt>
      <trkpt lat="44.84281" lon="5.18844">
        <ele>657.2</ele>
        <time>2018-04-01T08:52:42Z</time>
      </trkpt>
      <trkpt lat="44.84292" lon="5.18834">
        <ele>658.64</ele>
        <time>2018-04-01T08:52:55Z</time>
      </trkpt>
      <trkpt lat="44.84295" lon="5.18833">
        <ele>659.12</ele>
        <time>2018-04-01T08:52:59Z</time>
      </trkpt>
      <trkpt lat="44.84308" lon="5.18822">
        <ele>660.56</ele>
        <time>2018-04-01T08:53:13Z</time>
      </trkpt>
      <trkpt lat="44.84315" lon="5.18816">
        <ele>662.49</ele>
        <time>2018-04-01T08:53:24Z</time>
      </trkpt>
      <trkpt lat="44.84325" lon="5.18812">
        <ele>662.49</ele>
        <time>2018-04-01T08:53:34Z</time>
      </trkpt>
      <trkpt lat="44.84332" lon="5.18807">
        <ele>663.93</ele>
        <time>2018-04-01T08:53:43Z</time>
      </trkpt>
      <trkpt lat="44.84342" lon="5.18799">
        <ele>664.89</ele>
        <time>2018-04-01T08:53:55Z</time>
      </trkpt>
      <trkpt lat="44.84356" lon="5.188">
        <ele>665.37</ele>
        <time>2018-04-01T08:54:07Z</time>
      </trkpt>
      <trkpt lat="44.84358" lon="5.18801">
        <ele>665.37</ele>
        <time>2018-04-01T08:54:08Z</time>
      </trkpt>
      <trkpt lat="44.84368" lon="5.188">
        <ele>665.85</ele>
        <time>2018-04-01T08:54:16Z</time>
      </trkpt>
      <trkpt lat="44.84381" lon="5.188">
        <ele>665.85</ele>
        <time>2018-04-01T08:54:27Z</time>
      </trkpt>
      <trkpt lat="44.84394" lon="5.188">
        <ele>667.29</ele>
        <time>2018-04-01T08:54:38Z</time>
      </trkpt>
      <trkpt lat="44.84407" lon="5.18796">
        <ele>668.73</ele>
        <time>2018-04-01T08:54:51Z</time>
      </trkpt>
      <trkpt lat="44.84421" lon="5.18795">
        <ele>670.18</ele>
        <time>2018-04-01T08:55:04Z</time>
      </trkpt>
      <trkpt lat="44.84425" lon="5.18797">
        <ele>670.66</ele>
        <time>2018-04-01T08:55:09Z</time>
      </trkpt>
      <trkpt lat="44.8443" lon="5.18798">
        <ele>670.66</ele>
        <time>2018-04-01T08:55:13Z</time>
      </trkpt>
      <trkpt lat="44.84445" lon="5.18796">
        <ele>672.1</ele>
        <time>2018-04-01T08:55:27Z</time>
      </trkpt>
      <trkpt lat="44.84455" lon="5.18796">
        <ele>673.54</ele>
        <time>2018-04-01T08:55:40Z</time>
      </trkpt>
      <trkpt lat="44.84465" lon="5.18803">
        <ele>674.5</ele>
        <time>2018-04-01T08:55:52Z</time>
      </trkpt>
      <trkpt lat="44.84466" lon="5.18813">
        <ele>676.42</ele>
        <time>2018-04-01T08:56:01Z</time>
      </trkpt>
      <trkpt lat="44.84473" lon="5.18826">
        <ele>677.87</ele>
        <time>2018-04-01T08:56:14Z</time>
      </trkpt>
      <trkpt lat="44.84475" lon="5.18826">
        <ele>677.39</ele>
        <time>2018-04-01T08:56:16Z</time>
      </trkpt>
      <trkpt lat="44.84482" lon="5.18829">
        <ele>677.39</ele>
        <time>2018-04-01T08:56:23Z</time>
      </trkpt>
      <trkpt lat="44.84494" lon="5.18838">
        <ele>675.94</ele>
        <time>2018-04-01T08:56:37Z</time>
      </trkpt>
      <trkpt lat="44.84497" lon="5.18841">
        <ele>676.42</ele>
        <time>2018-04-01T08:56:40Z</time>
      </trkpt>
      <trkpt lat="44.8451" lon="5.18844">
        <ele>676.42</ele>
        <time>2018-04-01T08:56:53Z</time>
      </trkpt>
      <trkpt lat="44.84513" lon="5.18844">
        <ele>676.42</ele>
        <time>2018-04-01T08:56:55Z</time>
      </trkpt>
      <trkpt lat="44.84525" lon="5.1884">
        <ele>673.06</ele>
        <time>2018-04-01T08:57:09Z</time>
      </trkpt>
      <trkpt lat="44.84539" lon="5.18841">
        <ele>671.14</ele>
        <time>2018-04-01T08:57:23Z</time>
      </trkpt>
      <trkpt lat="44.8455" lon="5.18842">
        <ele>669.22</ele>
        <time>2018-04-01T08:57:35Z</time>
      </trkpt>
      <trkpt lat="44.84563" lon="5.18847">
        <ele>667.29</ele>
        <time>2018-04-01T08:57:51Z</time>
      </trkpt>
      <trkpt lat="44.84574" lon="5.1885">
        <ele>667.29</ele>
        <time>2018-04-01T08:58:02Z</time>
      </trkpt>
      <trkpt lat="44.84576" lon="5.18852">
        <ele>667.29</ele>
        <time>2018-04-01T08:58:04Z</time>
      </trkpt>
      <trkpt lat="44.84589" lon="5.18861">
        <ele>667.77</ele>
        <time>2018-04-01T08:58:17Z</time>
      </trkpt>
      <trkpt lat="44.84592" lon="5.18862">
        <ele>667.77</ele>
        <time>2018-04-01T08:58:20Z</time>
      </trkpt>
      <trkpt lat="44.84595" lon="5.18868">
        <ele>667.29</ele>
        <time>2018-04-01T08:58:23Z</time>
      </trkpt>
      <trkpt lat="44.84596" lon="5.18874">
        <ele>667.29</ele>
        <time>2018-04-01T08:58:27Z</time>
      </trkpt>
      <trkpt lat="44.84604" lon="5.18881">
        <ele>665.37</ele>
        <time>2018-04-01T08:58:35Z</time>
      </trkpt>
      <trkpt lat="44.8461" lon="5.18883">
        <ele>664.41</ele>
        <time>2018-04-01T08:58:39Z</time>
      </trkpt>
      <trkpt lat="44.84613" lon="5.18883">
        <ele>664.41</ele>
        <time>2018-04-01T08:58:42Z</time>
      </trkpt>
      <trkpt lat="44.84615" lon="5.18885">
        <ele>663.93</ele>
        <time>2018-04-01T08:58:45Z</time>
      </trkpt>
      <trkpt lat="44.8462" lon="5.18887">
        <ele>662.97</ele>
        <time>2018-04-01T08:58:50Z</time>
      </trkpt>
      <trkpt lat="44.84639" lon="5.18889">
        <ele>662.01</ele>
        <time>2018-04-01T08:59:06Z</time>
      </trkpt>
      <trkpt lat="44.84656" lon="5.18887">
        <ele>659.6</ele>
        <time>2018-04-01T08:59:22Z</time>
      </trkpt>
      <trkpt lat="44.84671" lon="5.18881">
        <ele>658.64</ele>
        <time>2018-04-01T08:59:35Z</time>
      </trkpt>
      <trkpt lat="44.84685" lon="5.18879">
        <ele>657.68</ele>
        <time>2018-04-01T08:59:47Z</time>
      </trkpt>
      <trkpt lat="44.84695" lon="5.18881">
        <ele>656.72</ele>
        <time>2018-04-01T08:59:58Z</time>
      </trkpt>
      <trkpt lat="44.847" lon="5.18886">
        <ele>656.24</ele>
        <time>2018-04-01T09:00:05Z</time>
      </trkpt>
      <trkpt lat="44.84712" lon="5.18904">
        <ele>655.76</ele>
        <time>2018-04-01T09:00:19Z</time>
      </trkpt>
      <trkpt lat="44.84718" lon="5.1892">
        <ele>653.83</ele>
        <time>2018-04-01T09:00:31Z</time>
      </trkpt>
      <trkpt lat="44.84717" lon="5.1894">
        <ele>650.95</ele>
        <time>2018-04-01T09:00:45Z</time>
      </trkpt>
      <trkpt lat="44.84716" lon="5.18955">
        <ele>649.99</ele>
        <time>2018-04-01T09:00:55Z</time>
      </trkpt>
      <trkpt lat="44.84719" lon="5.18973">
        <ele>649.99</ele>
        <time>2018-04-01T09:01:09Z</time>
      </trkpt>
      <trkpt lat="44.8472" lon="5.18975">
        <ele>649.03</ele>
        <time>2018-04-01T09:01:24Z</time>
      </trkpt>
      <trkpt lat="44.84718" lon="5.1898">
        <ele>649.51</ele>
        <time>2018-04-01T09:01:27Z</time>
      </trkpt>
      <trkpt lat="44.84712" lon="5.18997">
        <ele>646.62</ele>
        <time>2018-04-01T09:01:39Z</time>
      </trkpt>
      <trkpt lat="44.84714" lon="5.19013">
        <ele>645.18</ele>
        <time>2018-04-01T09:01:52Z</time>
      </trkpt>
      <trkpt lat="44.84722" lon="5.19029">
        <ele>644.22</ele>
        <time>2018-04-01T09:02:06Z</time>
      </trkpt>
      <trkpt lat="44.84725" lon="5.19031">
        <ele>644.7</ele>
        <time>2018-04-01T09:02:08Z</time>
      </trkpt>
      <trkpt lat="44.84746" lon="5.19043">
        <ele>645.18</ele>
        <time>2018-04-01T09:02:21Z</time>
      </trkpt>
      <trkpt lat="44.8476" lon="5.19049">
        <ele>645.66</ele>
        <time>2018-04-01T09:02:32Z</time>
      </trkpt>
      <trkpt lat="44.84767" lon="5.19068">
        <ele>648.55</ele>
        <time>2018-04-01T09:02:49Z</time>
      </trkpt>
      <trkpt lat="44.84771" lon="5.19081">
        <ele>651.91</ele>
        <time>2018-04-01T09:03:02Z</time>
      </trkpt>
      <trkpt lat="44.84779" lon="5.19098">
        <ele>653.83</ele>
        <time>2018-04-01T09:03:20Z</time>
      </trkpt>
      <trkpt lat="44.84789" lon="5.19115">
        <ele>657.2</ele>
        <time>2018-04-01T09:03:36Z</time>
      </trkpt>
      <trkpt lat="44.84796" lon="5.19125">
        <ele>662.01</ele>
        <time>2018-04-01T09:03:49Z</time>
      </trkpt>
      <trkpt lat="44.84808" lon="5.19138">
        <ele>662.01</ele>
        <time>2018-04-01T09:04:06Z</time>
      </trkpt>
      <trkpt lat="44.84823" lon="5.19152">
        <ele>665.37</ele>
        <time>2018-04-01T09:04:26Z</time>
      </trkpt>
      <trkpt lat="44.84836" lon="5.1917">
        <ele>667.77</ele>
        <time>2018-04-01T09:04:43Z</time>
      </trkpt>
      <trkpt lat="44.84843" lon="5.19184">
        <ele>668.25</ele>
        <time>2018-04-01T09:04:56Z</time>
      </trkpt>
      <trkpt lat="44.8484" lon="5.19202">
        <ele>670.18</ele>
        <time>2018-04-01T09:05:11Z</time>
      </trkpt>
      <trkpt lat="44.84843" lon="5.19205">
        <ele>670.18</ele>
        <time>2018-04-01T09:05:25Z</time>
      </trkpt>
      <trkpt lat="44.84843" lon="5.19213">
        <ele>670.66</ele>
        <time>2018-04-01T09:05:41Z</time>
      </trkpt>
      <trkpt lat="44.84846" lon="5.19222">
        <ele>672.1</ele>
        <time>2018-04-01T09:05:52Z</time>
      </trkpt>
      <trkpt lat="44.84846" lon="5.19228">
        <ele>672.58</ele>
        <time>2018-04-01T09:06:01Z</time>
      </trkpt>
      <trkpt lat="44.84846" lon="5.19242">
        <ele>674.5</ele>
        <time>2018-04-01T09:06:12Z</time>
      </trkpt>
      <trkpt lat="44.84851" lon="5.1926">
        <ele>674.98</ele>
        <time>2018-04-01T09:06:25Z</time>
      </trkpt>
      <trkpt lat="44.84857" lon="5.19275">
        <ele>676.91</ele>
        <time>2018-04-01T09:06:38Z</time>
      </trkpt>
      <trkpt lat="44.84862" lon="5.19284">
        <ele>677.87</ele>
        <time>2018-04-01T09:06:48Z</time>
      </trkpt>
      <trkpt lat="44.84874" lon="5.19295">
        <ele>679.31</ele>
        <time>2018-04-01T09:07:01Z</time>
      </trkpt>
      <trkpt lat="44.84879" lon="5.19292">
        <ele>679.79</ele>
        <time>2018-04-01T09:07:16Z</time>
      </trkpt>
      <trkpt lat="44.84887" lon="5.19294">
        <ele>679.31</ele>
        <time>2018-04-01T09:07:24Z</time>
      </trkpt>
      <trkpt lat="44.84904" lon="5.19298">
        <ele>680.27</ele>
        <time>2018-04-01T09:07:37Z</time>
      </trkpt>
      <trkpt lat="44.84917" lon="5.19302">
        <ele>680.75</ele>
        <time>2018-04-01T09:07:50Z</time>
      </trkpt>
      <trkpt lat="44.8493" lon="5.19304">
        <ele>680.75</ele>
        <time>2018-04-01T09:08:02Z</time>
      </trkpt>
      <trkpt lat="44.84935" lon="5.19306">
        <ele>681.23</ele>
        <time>2018-04-01T09:08:06Z</time>
      </trkpt>
      <trkpt lat="44.84947" lon="5.19311">
        <ele>681.71</ele>
        <time>2018-04-01T09:08:18Z</time>
      </trkpt>
      <trkpt lat="44.8496" lon="5.19317">
        <ele>681.23</ele>
        <time>2018-04-01T09:08:31Z</time>
      </trkpt>
      <trkpt lat="44.84976" lon="5.19326">
        <ele>682.19</ele>
        <time>2018-04-01T09:08:44Z</time>
      </trkpt>
      <trkpt lat="44.84987" lon="5.19334">
        <ele>683.15</ele>
        <time>2018-04-01T09:08:57Z</time>
      </trkpt>
      <trkpt lat="44.85001" lon="5.19342">
        <ele>684.6</ele>
        <time>2018-04-01T09:09:11Z</time>
      </trkpt>
      <trkpt lat="44.85013" lon="5.19348">
        <ele>685.56</ele>
        <time>2018-04-01T09:09:24Z</time>
      </trkpt>
      <trkpt lat="44.85026" lon="5.1935">
        <ele>687</ele>
        <time>2018-04-01T09:09:36Z</time>
      </trkpt>
      <trkpt lat="44.85028" lon="5.1935">
        <ele>687.48</ele>
        <time>2018-04-01T09:09:38Z</time>
      </trkpt>
      <trkpt lat="44.85039" lon="5.19355">
        <ele>689.4</ele>
        <time>2018-04-01T09:09:51Z</time>
      </trkpt>
      <trkpt lat="44.85051" lon="5.1936">
        <ele>690.84</ele>
        <time>2018-04-01T09:10:04Z</time>
      </trkpt>
      <trkpt lat="44.85067" lon="5.19356">
        <ele>691.81</ele>
        <time>2018-04-01T09:10:18Z</time>
      </trkpt>
      <trkpt lat="44.8508" lon="5.19352">
        <ele>692.77</ele>
        <time>2018-04-01T09:10:31Z</time>
      </trkpt>
      <trkpt lat="44.85082" lon="5.19352">
        <ele>692.29</ele>
        <time>2018-04-01T09:10:46Z</time>
      </trkpt>
      <trkpt lat="44.85083" lon="5.19353">
        <ele>687.96</ele>
        <time>2018-04-01T09:10:52Z</time>
      </trkpt>
      <trkpt lat="44.85084" lon="5.19353">
        <ele>696.61</ele>
        <time>2018-04-01T09:10:53Z</time>
      </trkpt>
      <trkpt lat="44.85084" lon="5.19353">
        <ele>692.77</ele>
        <time>2018-04-01T09:10:54Z</time>
      </trkpt>
      <trkpt lat="44.85087" lon="5.19351">
        <ele>692.29</ele>
        <time>2018-04-01T09:11:07Z</time>
      </trkpt>
      <trkpt lat="44.851" lon="5.19351">
        <ele>693.25</ele>
        <time>2018-04-01T09:11:28Z</time>
      </trkpt>
      <trkpt lat="44.8511" lon="5.19347">
        <ele>693.73</ele>
        <time>2018-04-01T09:11:41Z</time>
      </trkpt>
      <trkpt lat="44.8512" lon="5.19353">
        <ele>695.17</ele>
        <time>2018-04-01T09:11:51Z</time>
      </trkpt>
      <trkpt lat="44.85134" lon="5.19357">
        <ele>697.09</ele>
        <time>2018-04-01T09:12:05Z</time>
      </trkpt>
      <trkpt lat="44.85146" lon="5.19355">
        <ele>698.53</ele>
        <time>2018-04-01T09:12:19Z</time>
      </trkpt>
      <trkpt lat="44.85161" lon="5.19348">
        <ele>699.98</ele>
        <time>2018-04-01T09:12:33Z</time>
      </trkpt>
      <trkpt lat="44.85176" lon="5.1935">
        <ele>701.42</ele>
        <time>2018-04-01T09:12:48Z</time>
      </trkpt>
      <trkpt lat="44.8519" lon="5.1935">
        <ele>703.82</ele>
        <time>2018-04-01T09:13:01Z</time>
      </trkpt>
      <trkpt lat="44.85192" lon="5.19349">
        <ele>699.5</ele>
        <time>2018-04-01T09:13:03Z</time>
      </trkpt>
      <trkpt lat="44.85193" lon="5.19348">
        <ele>707.19</ele>
        <time>2018-04-01T09:13:04Z</time>
      </trkpt>
      <trkpt lat="44.85193" lon="5.19348">
        <ele>707.19</ele>
        <time>2018-04-01T09:13:05Z</time>
      </trkpt>
      <trkpt lat="44.85195" lon="5.19347">
        <ele>704.3</ele>
        <time>2018-04-01T09:13:07Z</time>
      </trkpt>
      <trkpt lat="44.85211" lon="5.19335">
        <ele>705.26</ele>
        <time>2018-04-01T09:13:23Z</time>
      </trkpt>
      <trkpt lat="44.85229" lon="5.19326">
        <ele>707.19</ele>
        <time>2018-04-01T09:13:40Z</time>
      </trkpt>
      <trkpt lat="44.8524" lon="5.19318">
        <ele>709.11</ele>
        <time>2018-04-01T09:13:53Z</time>
      </trkpt>
      <trkpt lat="44.85253" lon="5.19304">
        <ele>710.55</ele>
        <time>2018-04-01T09:14:08Z</time>
      </trkpt>
      <trkpt lat="44.85263" lon="5.19296">
        <ele>711.03</ele>
        <time>2018-04-01T09:14:18Z</time>
      </trkpt>
      <trkpt lat="44.85281" lon="5.19286">
        <ele>712.47</ele>
        <time>2018-04-01T09:14:35Z</time>
      </trkpt>
      <trkpt lat="44.85292" lon="5.19272">
        <ele>711.51</ele>
        <time>2018-04-01T09:14:49Z</time>
      </trkpt>
      <trkpt lat="44.8529" lon="5.19254">
        <ele>708.63</ele>
        <time>2018-04-01T09:15:03Z</time>
      </trkpt>
      <trkpt lat="44.85302" lon="5.19242">
        <ele>709.59</ele>
        <time>2018-04-01T09:15:16Z</time>
      </trkpt>
      <trkpt lat="44.85313" lon="5.19228">
        <ele>708.15</ele>
        <time>2018-04-01T09:15:31Z</time>
      </trkpt>
      <trkpt lat="44.85311" lon="5.19207">
        <ele>705.26</ele>
        <time>2018-04-01T09:15:46Z</time>
      </trkpt>
      <trkpt lat="44.8531" lon="5.19183">
        <ele>702.38</ele>
        <time>2018-04-01T09:16:01Z</time>
      </trkpt>
      <trkpt lat="44.85314" lon="5.19166">
        <ele>701.9</ele>
        <time>2018-04-01T09:16:13Z</time>
      </trkpt>
      <trkpt lat="44.85311" lon="5.19157">
        <ele>700.94</ele>
        <time>2018-04-01T09:16:29Z</time>
      </trkpt>
      <trkpt lat="44.8531" lon="5.19158">
        <ele>700.94</ele>
        <time>2018-04-01T09:16:48Z</time>
      </trkpt>
      <trkpt lat="44.8531" lon="5.19151">
        <ele>700.94</ele>
        <time>2018-04-01T09:17:17Z</time>
      </trkpt>
      <trkpt lat="44.85313" lon="5.19147">
        <ele>699.98</ele>
        <time>2018-04-01T09:17:24Z</time>
      </trkpt>
      <trkpt lat="44.85315" lon="5.19131">
        <ele>697.57</ele>
        <time>2018-04-01T09:17:37Z</time>
      </trkpt>
      <trkpt lat="44.85315" lon="5.19123">
        <ele>696.13</ele>
        <time>2018-04-01T09:17:43Z</time>
      </trkpt>
      <trkpt lat="44.85313" lon="5.19118">
        <ele>693.73</ele>
        <time>2018-04-01T09:17:55Z</time>
      </trkpt>
      <trkpt lat="44.85311" lon="5.19114">
        <ele>691.81</ele>
        <time>2018-04-01T09:18:06Z</time>
      </trkpt>
      <trkpt lat="44.85305" lon="5.19121">
        <ele>688.44</ele>
        <time>2018-04-01T09:18:18Z</time>
      </trkpt>
      <trkpt lat="44.853" lon="5.19122">
        <ele>686.52</ele>
        <time>2018-04-01T09:18:28Z</time>
      </trkpt>
      <trkpt lat="44.85302" lon="5.19117">
        <ele>684.6</ele>
        <time>2018-04-01T09:18:42Z</time>
      </trkpt>
      <trkpt lat="44.85303" lon="5.19111">
        <ele>683.15</ele>
        <time>2018-04-01T09:18:56Z</time>
      </trkpt>
      <trkpt lat="44.85306" lon="5.19102">
        <ele>680.27</ele>
        <time>2018-04-01T09:19:08Z</time>
      </trkpt>
      <trkpt lat="44.85314" lon="5.19093">
        <ele>681.23</ele>
        <time>2018-04-01T09:19:21Z</time>
      </trkpt>
      <trkpt lat="44.85315" lon="5.19089">
        <ele>680.27</ele>
        <time>2018-04-01T09:19:25Z</time>
      </trkpt>
      <trkpt lat="44.85307" lon="5.19082">
        <ele>678.35</ele>
        <time>2018-04-01T09:19:37Z</time>
      </trkpt>
      <trkpt lat="44.85297" lon="5.19095">
        <ele>676.42</ele>
        <time>2018-04-01T09:19:52Z</time>
      </trkpt>
      <trkpt lat="44.85291" lon="5.19098">
        <ele>673.54</ele>
        <time>2018-04-01T09:20:03Z</time>
      </trkpt>
      <trkpt lat="44.85288" lon="5.19092">
        <ele>670.66</ele>
        <time>2018-04-01T09:20:14Z</time>
      </trkpt>
      <trkpt lat="44.85288" lon="5.19087">
        <ele>667.77</ele>
        <time>2018-04-01T09:20:25Z</time>
      </trkpt>
      <trkpt lat="44.85292" lon="5.19076">
        <ele>665.37</ele>
        <time>2018-04-01T09:20:40Z</time>
      </trkpt>
      <trkpt lat="44.85297" lon="5.19069">
        <ele>662.97</ele>
        <time>2018-04-01T09:20:59Z</time>
      </trkpt>
      <trkpt lat="44.85299" lon="5.19071">
        <ele>663.93</ele>
        <time>2018-04-01T09:21:29Z</time>
      </trkpt>
      <trkpt lat="44.85312" lon="5.19074">
        <ele>662.97</ele>
        <time>2018-04-01T09:21:47Z</time>
      </trkpt>
      <trkpt lat="44.85316" lon="5.19082">
        <ele>664.41</ele>
        <time>2018-04-01T09:22:10Z</time>
      </trkpt>
      <trkpt lat="44.85338" lon="5.19078">
        <ele>665.37</ele>
        <time>2018-04-01T09:22:33Z</time>
      </trkpt>
      <trkpt lat="44.85353" lon="5.19086">
        <ele>666.81</ele>
        <time>2018-04-01T09:22:52Z</time>
      </trkpt>
      <trkpt lat="44.85363" lon="5.19092">
        <ele>667.77</ele>
        <time>2018-04-01T09:23:07Z</time>
      </trkpt>
      <trkpt lat="44.85356" lon="5.19096">
        <ele>668.73</ele>
        <time>2018-04-01T09:23:31Z</time>
      </trkpt>
      <trkpt lat="44.85353" lon="5.19094">
        <ele>668.25</ele>
        <time>2018-04-01T09:23:54Z</time>
      </trkpt>
      <trkpt lat="44.85355" lon="5.19093">
        <ele>668.73</ele>
        <time>2018-04-01T09:24:25Z</time>
      </trkpt>
      <trkpt lat="44.85365" lon="5.191">
        <ele>670.18</ele>
        <time>2018-04-01T09:24:40Z</time>
      </trkpt>
      <trkpt lat="44.85381" lon="5.19101">
        <ele>671.62</ele>
        <time>2018-04-01T09:24:55Z</time>
      </trkpt>
      <trkpt lat="44.85394" lon="5.19102">
        <ele>673.06</ele>
        <time>2018-04-01T09:25:10Z</time>
      </trkpt>
      <trkpt lat="44.85404" lon="5.191">
        <ele>674.5</ele>
        <time>2018-04-01T09:25:27Z</time>
      </trkpt>
      <trkpt lat="44.85409" lon="5.19093">
        <ele>674.5</ele>
        <time>2018-04-01T09:25:36Z</time>
      </trkpt>
      <trkpt lat="44.85419" lon="5.19086">
        <ele>676.42</ele>
        <time>2018-04-01T09:25:58Z</time>
      </trkpt>
      <trkpt lat="44.85435" lon="5.19097">
        <ele>677.39</ele>
        <time>2018-04-01T09:26:20Z</time>
      </trkpt>
      <trkpt lat="44.85448" lon="5.19101">
        <ele>678.35</ele>
        <time>2018-04-01T09:26:39Z</time>
      </trkpt>
      <trkpt lat="44.85462" lon="5.19101">
        <ele>678.83</ele>
        <time>2018-04-01T09:26:56Z</time>
      </trkpt>
      <trkpt lat="44.85472" lon="5.19093">
        <ele>680.75</ele>
        <time>2018-04-01T09:27:17Z</time>
      </trkpt>
      <trkpt lat="44.85481" lon="5.19099">
        <ele>681.71</ele>
        <time>2018-04-01T09:27:32Z</time>
      </trkpt>
      <trkpt lat="44.85492" lon="5.19103">
        <ele>681.71</ele>
        <time>2018-04-01T09:27:47Z</time>
      </trkpt>
      <trkpt lat="44.85503" lon="5.1911">
        <ele>683.63</ele>
        <time>2018-04-01T09:28:02Z</time>
      </trkpt>
      <trkpt lat="44.8551" lon="5.19123">
        <ele>683.63</ele>
        <time>2018-04-01T09:28:18Z</time>
      </trkpt>
      <trkpt lat="44.85515" lon="5.19125">
        <ele>683.63</ele>
        <time>2018-04-01T09:28:42Z</time>
      </trkpt>
      <trkpt lat="44.85515" lon="5.19126">
        <ele>683.63</ele>
        <time>2018-04-01T09:29:13Z</time>
      </trkpt>
      <trkpt lat="44.85523" lon="5.19129">
        <ele>683.63</ele>
        <time>2018-04-01T09:29:24Z</time>
      </trkpt>
      <trkpt lat="44.85537" lon="5.19134">
        <ele>684.6</ele>
        <time>2018-04-01T09:29:42Z</time>
      </trkpt>
      <trkpt lat="44.85553" lon="5.19129">
        <ele>685.08</ele>
        <time>2018-04-01T09:30:05Z</time>
      </trkpt>
      <trkpt lat="44.85566" lon="5.19146">
        <ele>686.52</ele>
        <time>2018-04-01T09:30:25Z</time>
      </trkpt>
      <trkpt lat="44.85576" lon="5.19157">
        <ele>687.48</ele>
        <time>2018-04-01T09:30:45Z</time>
      </trkpt>
      <trkpt lat="44.85578" lon="5.1916">
        <ele>688.92</ele>
        <time>2018-04-01T09:30:59Z</time>
      </trkpt>
      <trkpt lat="44.85575" lon="5.19163">
        <ele>691.81</ele>
        <time>2018-04-01T09:31:13Z</time>
      </trkpt>
      <trkpt lat="44.85578" lon="5.19164">
        <ele>693.73</ele>
        <time>2018-04-01T09:31:29Z</time>
      </trkpt>
      <trkpt lat="44.85583" lon="5.19153">
        <ele>693.25</ele>
        <time>2018-04-01T09:31:50Z</time>
      </trkpt>
      <trkpt lat="44.85581" lon="5.19151">
        <ele>693.25</ele>
        <time>2018-04-01T09:32:15Z</time>
      </trkpt>
      <trkpt lat="44.8558" lon="5.19162">
        <ele>687.48</ele>
        <time>2018-04-01T09:32:29Z</time>
      </trkpt>
      <trkpt lat="44.8558" lon="5.19163">
        <ele>697.09</ele>
        <time>2018-04-01T09:32:30Z</time>
      </trkpt>
      <trkpt lat="44.85581" lon="5.19163">
        <ele>693.73</ele>
        <time>2018-04-01T09:32:31Z</time>
      </trkpt>
      <trkpt lat="44.85584" lon="5.19163">
        <ele>694.69</ele>
        <time>2018-04-01T09:32:50Z</time>
      </trkpt>
      <trkpt lat="44.85595" lon="5.19159">
        <ele>696.13</ele>
        <time>2018-04-01T09:33:10Z</time>
      </trkpt>
      <trkpt lat="44.85604" lon="5.19145">
        <ele>697.09</ele>
        <time>2018-04-01T09:33:24Z</time>
      </trkpt>
      <trkpt lat="44.85606" lon="5.19145">
        <ele>696.61</ele>
        <time>2018-04-01T09:33:38Z</time>
      </trkpt>
      <trkpt lat="44.85616" lon="5.19146">
        <ele>698.05</ele>
        <time>2018-04-01T09:33:53Z</time>
      </trkpt>
      <trkpt lat="44.85625" lon="5.1914">
        <ele>698.05</ele>
        <time>2018-04-01T09:34:05Z</time>
      </trkpt>
      <trkpt lat="44.85635" lon="5.1913">
        <ele>699.02</ele>
        <time>2018-04-01T09:34:19Z</time>
      </trkpt>
      <trkpt lat="44.85645" lon="5.1912">
        <ele>699.5</ele>
        <time>2018-04-01T09:34:31Z</time>
      </trkpt>
      <trkpt lat="44.85653" lon="5.19118">
        <ele>699.02</ele>
        <time>2018-04-01T09:34:49Z</time>
      </trkpt>
      <trkpt lat="44.85663" lon="5.191">
        <ele>699.5</ele>
        <time>2018-04-01T09:35:03Z</time>
      </trkpt>
      <trkpt lat="44.85665" lon="5.19093">
        <ele>700.46</ele>
        <time>2018-04-01T09:35:09Z</time>
      </trkpt>
      <trkpt lat="44.85667" lon="5.19086">
        <ele>700.46</ele>
        <time>2018-04-01T09:35:15Z</time>
      </trkpt>
      <trkpt lat="44.85668" lon="5.19082">
        <ele>699.98</ele>
        <time>2018-04-01T09:35:18Z</time>
      </trkpt>
      <trkpt lat="44.85667" lon="5.19072">
        <ele>700.46</ele>
        <time>2018-04-01T09:35:27Z</time>
      </trkpt>
      <trkpt lat="44.85663" lon="5.19056">
        <ele>700.94</ele>
        <time>2018-04-01T09:35:40Z</time>
      </trkpt>
      <trkpt lat="44.85668" lon="5.19041">
        <ele>701.42</ele>
        <time>2018-04-01T09:36:01Z</time>
      </trkpt>
      <trkpt lat="44.85672" lon="5.19033">
        <ele>701.9</ele>
        <time>2018-04-01T09:36:09Z</time>
      </trkpt>
      <trkpt lat="44.85678" lon="5.19019">
        <ele>701.9</ele>
        <time>2018-04-01T09:36:26Z</time>
      </trkpt>
      <trkpt lat="44.85678" lon="5.19016">
        <ele>703.82</ele>
        <time>2018-04-01T09:36:41Z</time>
      </trkpt>
      <trkpt lat="44.85679" lon="5.19012">
        <ele>704.3</ele>
        <time>2018-04-01T09:37:09Z</time>
      </trkpt>
      <trkpt lat="44.85685" lon="5.19005">
        <ele>707.19</ele>
        <time>2018-04-01T09:37:38Z</time>
      </trkpt>
      <trkpt lat="44.85738" lon="5.19014">
        <ele>709.59</ele>
        <time>2018-04-01T09:38:02Z</time>
      </trkpt>
      <trkpt lat="44.85749" lon="5.1901">
        <ele>709.59</ele>
        <time>2018-04-01T09:38:20Z</time>
      </trkpt>
      <trkpt lat="44.8575" lon="5.19">
        <ele>710.55</ele>
        <time>2018-04-01T09:38:37Z</time>
      </trkpt>
      <trkpt lat="44.85754" lon="5.1899">
        <ele>711.51</ele>
        <time>2018-04-01T09:38:54Z</time>
      </trkpt>
      <trkpt lat="44.85762" lon="5.18987">
        <ele>711.99</ele>
        <time>2018-04-01T09:39:11Z</time>
      </trkpt>
      <trkpt lat="44.85775" lon="5.18979">
        <ele>712.95</ele>
        <time>2018-04-01T09:39:29Z</time>
      </trkpt>
      <trkpt lat="44.85775" lon="5.18968">
        <ele>714.88</ele>
        <time>2018-04-01T09:39:49Z</time>
      </trkpt>
      <trkpt lat="44.85773" lon="5.18956">
        <ele>714.4</ele>
        <time>2018-04-01T09:40:06Z</time>
      </trkpt>
      <trkpt lat="44.85778" lon="5.18943">
        <ele>714.88</ele>
        <time>2018-04-01T09:40:23Z</time>
      </trkpt>
      <trkpt lat="44.85801" lon="5.18933">
        <ele>715.84</ele>
        <time>2018-04-01T09:40:40Z</time>
      </trkpt>
      <trkpt lat="44.85821" lon="5.18926">
        <ele>716.32</ele>
        <time>2018-04-01T09:40:53Z</time>
      </trkpt>
      <trkpt lat="44.85836" lon="5.18914">
        <ele>717.28</ele>
        <time>2018-04-01T09:41:09Z</time>
      </trkpt>
      <trkpt lat="44.85844" lon="5.18899">
        <ele>717.76</ele>
        <time>2018-04-01T09:41:26Z</time>
      </trkpt>
      <trkpt lat="44.85848" lon="5.18891">
        <ele>719.2</ele>
        <time>2018-04-01T09:41:44Z</time>
      </trkpt>
      <trkpt lat="44.85858" lon="5.18887">
        <ele>720.16</ele>
        <time>2018-04-01T09:42:02Z</time>
      </trkpt>
      <trkpt lat="44.85874" lon="5.18875">
        <ele>721.61</ele>
        <time>2018-04-01T09:42:24Z</time>
      </trkpt>
      <trkpt lat="44.85881" lon="5.18877">
        <ele>721.61</ele>
        <time>2018-04-01T09:42:39Z</time>
      </trkpt>
      <trkpt lat="44.85902" lon="5.1889">
        <ele>722.09</ele>
        <time>2018-04-01T09:42:58Z</time>
      </trkpt>
      <trkpt lat="44.85912" lon="5.18896">
        <ele>722.57</ele>
        <time>2018-04-01T09:43:15Z</time>
      </trkpt>
      <trkpt lat="44.85923" lon="5.18907">
        <ele>723.53</ele>
        <time>2018-04-01T09:43:32Z</time>
      </trkpt>
      <trkpt lat="44.85931" lon="5.18916">
        <ele>724.01</ele>
        <time>2018-04-01T09:43:47Z</time>
      </trkpt>
      <trkpt lat="44.85938" lon="5.18931">
        <ele>724.49</ele>
        <time>2018-04-01T09:44:04Z</time>
      </trkpt>
      <trkpt lat="44.85951" lon="5.18934">
        <ele>725.45</ele>
        <time>2018-04-01T09:44:21Z</time>
      </trkpt>
      <trkpt lat="44.85962" lon="5.18944">
        <ele>726.41</ele>
        <time>2018-04-01T09:44:40Z</time>
      </trkpt>
      <trkpt lat="44.85971" lon="5.18956">
        <ele>727.86</ele>
        <time>2018-04-01T09:45:02Z</time>
      </trkpt>
      <trkpt lat="44.85984" lon="5.18958">
        <ele>728.34</ele>
        <time>2018-04-01T09:45:24Z</time>
      </trkpt>
      <trkpt lat="44.85995" lon="5.18955">
        <ele>729.3</ele>
        <time>2018-04-01T09:45:39Z</time>
      </trkpt>
      <trkpt lat="44.86007" lon="5.1895">
        <ele>730.74</ele>
        <time>2018-04-01T09:45:56Z</time>
      </trkpt>
      <trkpt lat="44.86009" lon="5.1895">
        <ele>730.26</ele>
        <time>2018-04-01T09:46:12Z</time>
      </trkpt>
      <trkpt lat="44.86012" lon="5.18955">
        <ele>731.22</ele>
        <time>2018-04-01T09:46:29Z</time>
      </trkpt>
      <trkpt lat="44.86014" lon="5.18958">
        <ele>732.66</ele>
        <time>2018-04-01T09:46:46Z</time>
      </trkpt>
      <trkpt lat="44.86024" lon="5.18962">
        <ele>733.14</ele>
        <time>2018-04-01T09:47:06Z</time>
      </trkpt>
      <trkpt lat="44.86027" lon="5.18975">
        <ele>733.62</ele>
        <time>2018-04-01T09:47:25Z</time>
      </trkpt>
      <trkpt lat="44.86032" lon="5.18974">
        <ele>735.07</ele>
        <time>2018-04-01T09:47:47Z</time>
      </trkpt>
      <trkpt lat="44.86034" lon="5.18973">
        <ele>734.58</ele>
        <time>2018-04-01T09:48:04Z</time>
      </trkpt>
      <trkpt lat="44.86039" lon="5.18977">
        <ele>737.47</ele>
        <time>2018-04-01T09:48:21Z</time>
      </trkpt>
      <trkpt lat="44.86039" lon="5.1899">
        <ele>736.99</ele>
        <time>2018-04-01T09:48:43Z</time>
      </trkpt>
      <trkpt lat="44.8604" lon="5.18991">
        <ele>736.99</ele>
        <time>2018-04-01T09:49:05Z</time>
      </trkpt>
      <trkpt lat="44.86047" lon="5.18992">
        <ele>737.47</ele>
        <time>2018-04-01T09:49:22Z</time>
      </trkpt>
      <trkpt lat="44.86054" lon="5.19">
        <ele>738.43</ele>
        <time>2018-04-01T09:49:39Z</time>
      </trkpt>
      <trkpt lat="44.86066" lon="5.19008">
        <ele>738.91</ele>
        <time>2018-04-01T09:49:54Z</time>
      </trkpt>
      <trkpt lat="44.8608" lon="5.19022">
        <ele>739.87</ele>
        <time>2018-04-01T09:50:12Z</time>
      </trkpt>
      <trkpt lat="44.86089" lon="5.19032">
        <ele>739.39</ele>
        <time>2018-04-01T09:50:36Z</time>
      </trkpt>
      <trkpt lat="44.86096" lon="5.19032">
        <ele>740.83</ele>
        <time>2018-04-01T09:50:51Z</time>
      </trkpt>
      <trkpt lat="44.86098" lon="5.1903">
        <ele>741.79</ele>
        <time>2018-04-01T09:51:04Z</time>
      </trkpt>
      <trkpt lat="44.86092" lon="5.19031">
        <ele>741.31</ele>
        <time>2018-04-01T09:51:24Z</time>
      </trkpt>
      <trkpt lat="44.86095" lon="5.19024">
        <ele>742.28</ele>
        <time>2018-04-01T09:51:47Z</time>
      </trkpt>
      <trkpt lat="44.86104" lon="5.19013">
        <ele>744.68</ele>
        <time>2018-04-01T09:52:03Z</time>
      </trkpt>
      <trkpt lat="44.86113" lon="5.18991">
        <ele>743.72</ele>
        <time>2018-04-01T09:52:18Z</time>
      </trkpt>
      <trkpt lat="44.86124" lon="5.18981">
        <ele>744.68</ele>
        <time>2018-04-01T09:52:32Z</time>
      </trkpt>
      <trkpt lat="44.86138" lon="5.18973">
        <ele>744.68</ele>
        <time>2018-04-01T09:52:40Z</time>
      </trkpt>
      <trkpt lat="44.86147" lon="5.18958">
        <ele>746.12</ele>
        <time>2018-04-01T09:52:57Z</time>
      </trkpt>
      <trkpt lat="44.86158" lon="5.18944">
        <ele>746.12</ele>
        <time>2018-04-01T09:53:11Z</time>
      </trkpt>
      <trkpt lat="44.86167" lon="5.18937">
        <ele>746.6</ele>
        <time>2018-04-01T09:53:30Z</time>
      </trkpt>
      <trkpt lat="44.86168" lon="5.18928">
        <ele>748.04</ele>
        <time>2018-04-01T09:53:45Z</time>
      </trkpt>
      <trkpt lat="44.86172" lon="5.18914">
        <ele>749.97</ele>
        <time>2018-04-01T09:53:59Z</time>
      </trkpt>
      <trkpt lat="44.86184" lon="5.18896">
        <ele>750.93</ele>
        <time>2018-04-01T09:54:17Z</time>
      </trkpt>
      <trkpt lat="44.86189" lon="5.18886">
        <ele>750.93</ele>
        <time>2018-04-01T09:54:34Z</time>
      </trkpt>
      <trkpt lat="44.86196" lon="5.18887">
        <ele>751.41</ele>
        <time>2018-04-01T09:54:52Z</time>
      </trkpt>
      <trkpt lat="44.86211" lon="5.18888">
        <ele>752.37</ele>
        <time>2018-04-01T09:55:10Z</time>
      </trkpt>
      <trkpt lat="44.86221" lon="5.18888">
        <ele>753.33</ele>
        <time>2018-04-01T09:55:23Z</time>
      </trkpt>
      <trkpt lat="44.86234" lon="5.18896">
        <ele>755.25</ele>
        <time>2018-04-01T09:55:40Z</time>
      </trkpt>
      <trkpt lat="44.86241" lon="5.18893">
        <ele>756.21</ele>
        <time>2018-04-01T09:55:55Z</time>
      </trkpt>
      <trkpt lat="44.86249" lon="5.18895">
        <ele>757.66</ele>
        <time>2018-04-01T09:56:12Z</time>
      </trkpt>
      <trkpt lat="44.86254" lon="5.18899">
        <ele>757.66</ele>
        <time>2018-04-01T09:56:28Z</time>
      </trkpt>
      <trkpt lat="44.86264" lon="5.18909">
        <ele>758.62</ele>
        <time>2018-04-01T09:56:47Z</time>
      </trkpt>
      <trkpt lat="44.86268" lon="5.18915">
        <ele>758.62</ele>
        <time>2018-04-01T09:57:07Z</time>
      </trkpt>
      <trkpt lat="44.86264" lon="5.1892">
        <ele>759.1</ele>
        <time>2018-04-01T09:57:29Z</time>
      </trkpt>
      <trkpt lat="44.86264" lon="5.18922">
        <ele>759.58</ele>
        <time>2018-04-01T09:57:51Z</time>
      </trkpt>
      <trkpt lat="44.86273" lon="5.18925">
        <ele>759.58</ele>
        <time>2018-04-01T09:58:09Z</time>
      </trkpt>
      <trkpt lat="44.86286" lon="5.18923">
        <ele>760.06</ele>
        <time>2018-04-01T09:58:21Z</time>
      </trkpt>
      <trkpt lat="44.86294" lon="5.18932">
        <ele>760.54</ele>
        <time>2018-04-01T09:58:32Z</time>
      </trkpt>
      <trkpt lat="44.863" lon="5.18939">
        <ele>761.02</ele>
        <time>2018-04-01T09:58:44Z</time>
      </trkpt>
      <trkpt lat="44.86307" lon="5.18952">
        <ele>761.5</ele>
        <time>2018-04-01T09:58:57Z</time>
      </trkpt>
      <trkpt lat="44.86316" lon="5.18965">
        <ele>762.46</ele>
        <time>2018-04-01T09:59:14Z</time>
      </trkpt>
      <trkpt lat="44.86325" lon="5.18976">
        <ele>763.42</ele>
        <time>2018-04-01T09:59:29Z</time>
      </trkpt>
      <trkpt lat="44.86328" lon="5.18985">
        <ele>763.42</ele>
        <time>2018-04-01T09:59:44Z</time>
      </trkpt>
      <trkpt lat="44.86345" lon="5.18985">
        <ele>765.35</ele>
        <time>2018-04-01T10:00:01Z</time>
      </trkpt>
      <trkpt lat="44.86364" lon="5.18974">
        <ele>766.79</ele>
        <time>2018-04-01T10:00:18Z</time>
      </trkpt>
      <trkpt lat="44.86373" lon="5.18955">
        <ele>767.27</ele>
        <time>2018-04-01T10:00:34Z</time>
      </trkpt>
      <trkpt lat="44.86389" lon="5.1894">
        <ele>768.23</ele>
        <time>2018-04-01T10:00:49Z</time>
      </trkpt>
      <trkpt lat="44.86401" lon="5.18927">
        <ele>768.71</ele>
        <time>2018-04-01T10:01:04Z</time>
      </trkpt>
      <trkpt lat="44.86411" lon="5.18918">
        <ele>769.67</ele>
        <time>2018-04-01T10:01:21Z</time>
      </trkpt>
      <trkpt lat="44.86426" lon="5.18903">
        <ele>770.15</ele>
        <time>2018-04-01T10:01:36Z</time>
      </trkpt>
      <trkpt lat="44.86435" lon="5.18885">
        <ele>771.11</ele>
        <time>2018-04-01T10:01:53Z</time>
      </trkpt>
      <trkpt lat="44.86446" lon="5.18877">
        <ele>770.63</ele>
        <time>2018-04-01T10:02:08Z</time>
      </trkpt>
      <trkpt lat="44.86453" lon="5.18873">
        <ele>771.11</ele>
        <time>2018-04-01T10:02:21Z</time>
      </trkpt>
      <trkpt lat="44.86456" lon="5.18871">
        <ele>772.08</ele>
        <time>2018-04-01T10:02:28Z</time>
      </trkpt>
      <trkpt lat="44.86473" lon="5.18869">
        <ele>773.04</ele>
        <time>2018-04-01T10:02:46Z</time>
      </trkpt>
      <trkpt lat="44.86483" lon="5.1887">
        <ele>773.04</ele>
        <time>2018-04-01T10:03:03Z</time>
      </trkpt>
      <trkpt lat="44.86499" lon="5.18869">
        <ele>774</ele>
        <time>2018-04-01T10:03:20Z</time>
      </trkpt>
      <trkpt lat="44.86508" lon="5.18872">
        <ele>774.48</ele>
        <time>2018-04-01T10:03:35Z</time>
      </trkpt>
      <trkpt lat="44.86521" lon="5.18872">
        <ele>776.4</ele>
        <time>2018-04-01T10:03:54Z</time>
      </trkpt>
      <trkpt lat="44.86526" lon="5.18871">
        <ele>776.88</ele>
        <time>2018-04-01T10:04:16Z</time>
      </trkpt>
      <trkpt lat="44.86536" lon="5.18876">
        <ele>775.92</ele>
        <time>2018-04-01T10:04:33Z</time>
      </trkpt>
      <trkpt lat="44.86544" lon="5.18875">
        <ele>776.88</ele>
        <time>2018-04-01T10:04:46Z</time>
      </trkpt>
      <trkpt lat="44.86547" lon="5.18882">
        <ele>777.36</ele>
        <time>2018-04-01T10:05:02Z</time>
      </trkpt>
      <trkpt lat="44.86553" lon="5.18879">
        <ele>777.84</ele>
        <time>2018-04-01T10:05:21Z</time>
      </trkpt>
      <trkpt lat="44.86552" lon="5.18877">
        <ele>777.36</ele>
        <time>2018-04-01T10:05:43Z</time>
      </trkpt>
      <trkpt lat="44.86546" lon="5.18887">
        <ele>777.36</ele>
        <time>2018-04-01T10:06:06Z</time>
      </trkpt>
      <trkpt lat="44.86542" lon="5.18883">
        <ele>777.36</ele>
        <time>2018-04-01T10:06:23Z</time>
      </trkpt>
      <trkpt lat="44.86542" lon="5.18881">
        <ele>777.84</ele>
        <time>2018-04-01T10:06:44Z</time>
      </trkpt>
      <trkpt lat="44.86542" lon="5.1888">
        <ele>774.48</ele>
        <time>2018-04-01T10:06:52Z</time>
      </trkpt>
      <trkpt lat="44.86542" lon="5.1888">
        <ele>780.73</ele>
        <time>2018-04-01T10:06:53Z</time>
      </trkpt>
      <trkpt lat="44.86543" lon="5.1888">
        <ele>777.84</ele>
        <time>2018-04-01T10:06:55Z</time>
      </trkpt>
      <trkpt lat="44.86542" lon="5.18874">
        <ele>778.81</ele>
        <time>2018-04-01T10:07:18Z</time>
      </trkpt>
      <trkpt lat="44.86544" lon="5.18881">
        <ele>777.84</ele>
        <time>2018-04-01T10:07:46Z</time>
      </trkpt>
      <trkpt lat="44.86551" lon="5.18885">
        <ele>779.77</ele>
        <time>2018-04-01T10:08:13Z</time>
      </trkpt>
      <trkpt lat="44.86549" lon="5.18884">
        <ele>779.77</ele>
        <time>2018-04-01T10:08:37Z</time>
      </trkpt>
      <trkpt lat="44.8655" lon="5.18878">
        <ele>780.73</ele>
        <time>2018-04-01T10:08:59Z</time>
      </trkpt>
      <trkpt lat="44.86556" lon="5.1889">
        <ele>781.21</ele>
        <time>2018-04-01T10:09:20Z</time>
      </trkpt>
      <trkpt lat="44.86567" lon="5.18888">
        <ele>781.69</ele>
        <time>2018-04-01T10:09:36Z</time>
      </trkpt>
      <trkpt lat="44.86573" lon="5.18888">
        <ele>783.61</ele>
        <time>2018-04-01T10:09:52Z</time>
      </trkpt>
      <trkpt lat="44.86575" lon="5.18893">
        <ele>783.61</ele>
        <time>2018-04-01T10:10:07Z</time>
      </trkpt>
      <trkpt lat="44.86581" lon="5.18888">
        <ele>784.09</ele>
        <time>2018-04-01T10:10:21Z</time>
      </trkpt>
      <trkpt lat="44.86582" lon="5.18887">
        <ele>785.05</ele>
        <time>2018-04-01T10:10:25Z</time>
      </trkpt>
      <trkpt lat="44.86589" lon="5.18882">
        <ele>786.5</ele>
        <time>2018-04-01T10:10:40Z</time>
      </trkpt>
      <trkpt lat="44.86597" lon="5.18877">
        <ele>785.53</ele>
        <time>2018-04-01T10:10:54Z</time>
      </trkpt>
      <trkpt lat="44.86608" lon="5.18884">
        <ele>786.02</ele>
        <time>2018-04-01T10:11:09Z</time>
      </trkpt>
      <trkpt lat="44.86614" lon="5.18877">
        <ele>786.98</ele>
        <time>2018-04-01T10:11:24Z</time>
      </trkpt>
      <trkpt lat="44.8662" lon="5.18879">
        <ele>786.98</ele>
        <time>2018-04-01T10:11:46Z</time>
      </trkpt>
      <trkpt lat="44.86631" lon="5.18886">
        <ele>787.94</ele>
        <time>2018-04-01T10:11:59Z</time>
      </trkpt>
      <trkpt lat="44.86635" lon="5.18889">
        <ele>788.42</ele>
        <time>2018-04-01T10:12:03Z</time>
      </trkpt>
      <trkpt lat="44.86641" lon="5.18896">
        <ele>787.94</ele>
        <time>2018-04-01T10:12:14Z</time>
      </trkpt>
      <trkpt lat="44.86649" lon="5.189">
        <ele>789.38</ele>
        <time>2018-04-01T10:12:27Z</time>
      </trkpt>
      <trkpt lat="44.86653" lon="5.18901">
        <ele>790.34</ele>
        <time>2018-04-01T10:12:32Z</time>
      </trkpt>
      <trkpt lat="44.8666" lon="5.18911">
        <ele>791.3</ele>
        <time>2018-04-01T10:12:45Z</time>
      </trkpt>
      <trkpt lat="44.86668" lon="5.18921">
        <ele>790.82</ele>
        <time>2018-04-01T10:13:01Z</time>
      </trkpt>
      <trkpt lat="44.86679" lon="5.18935">
        <ele>790.82</ele>
        <time>2018-04-01T10:13:17Z</time>
      </trkpt>
      <trkpt lat="44.86682" lon="5.18941">
        <ele>791.3</ele>
        <time>2018-04-01T10:13:31Z</time>
      </trkpt>
      <trkpt lat="44.86693" lon="5.1895">
        <ele>791.3</ele>
        <time>2018-04-01T10:13:48Z</time>
      </trkpt>
      <trkpt lat="44.86695" lon="5.18957">
        <ele>792.74</ele>
        <time>2018-04-01T10:14:03Z</time>
      </trkpt>
      <trkpt lat="44.86697" lon="5.18962">
        <ele>794.67</ele>
        <time>2018-04-01T10:14:10Z</time>
      </trkpt>
      <trkpt lat="44.86704" lon="5.18957">
        <ele>796.59</ele>
        <time>2018-04-01T10:14:27Z</time>
      </trkpt>
      <trkpt lat="44.86716" lon="5.18951">
        <ele>795.15</ele>
        <time>2018-04-01T10:14:43Z</time>
      </trkpt>
      <trkpt lat="44.86715" lon="5.1894">
        <ele>796.11</ele>
        <time>2018-04-01T10:15:02Z</time>
      </trkpt>
      <trkpt lat="44.86715" lon="5.18938">
        <ele>797.55</ele>
        <time>2018-04-01T10:15:19Z</time>
      </trkpt>
      <trkpt lat="44.86712" lon="5.18939">
        <ele>797.55</ele>
        <time>2018-04-01T10:15:37Z</time>
      </trkpt>
      <trkpt lat="44.8671" lon="5.18937">
        <ele>797.55</ele>
        <time>2018-04-01T10:15:55Z</time>
      </trkpt>
      <trkpt lat="44.86704" lon="5.18939">
        <ele>799.95</ele>
        <time>2018-04-01T10:16:08Z</time>
      </trkpt>
      <trkpt lat="44.86699" lon="5.1893">
        <ele>802.84</ele>
        <time>2018-04-01T10:16:21Z</time>
      </trkpt>
      <trkpt lat="44.86698" lon="5.18922">
        <ele>804.76</ele>
        <time>2018-04-01T10:16:33Z</time>
      </trkpt>
      <trkpt lat="44.86695" lon="5.18916">
        <ele>806.2</ele>
        <time>2018-04-01T10:16:53Z</time>
      </trkpt>
      <trkpt lat="44.86697" lon="5.18913">
        <ele>806.68</ele>
        <time>2018-04-01T10:17:05Z</time>
      </trkpt>
      <trkpt lat="44.86699" lon="5.18911">
        <ele>806.68</ele>
        <time>2018-04-01T10:17:19Z</time>
      </trkpt>
      <trkpt lat="44.86703" lon="5.18895">
        <ele>809.09</ele>
        <time>2018-04-01T10:17:35Z</time>
      </trkpt>
      <trkpt lat="44.86708" lon="5.18888">
        <ele>812.45</ele>
        <time>2018-04-01T10:17:43Z</time>
      </trkpt>
      <trkpt lat="44.86722" lon="5.18876">
        <ele>814.85</ele>
        <time>2018-04-01T10:18:00Z</time>
      </trkpt>
      <trkpt lat="44.86725" lon="5.18865">
        <ele>816.78</ele>
        <time>2018-04-01T10:18:14Z</time>
      </trkpt>
      <trkpt lat="44.86724" lon="5.18864">
        <ele>817.26</ele>
        <time>2018-04-01T10:18:16Z</time>
      </trkpt>
      <trkpt lat="44.86726" lon="5.18849">
        <ele>819.18</ele>
        <time>2018-04-01T10:18:31Z</time>
      </trkpt>
      <trkpt lat="44.86725" lon="5.18844">
        <ele>819.66</ele>
        <time>2018-04-01T10:18:43Z</time>
      </trkpt>
      <trkpt lat="44.86729" lon="5.18835">
        <ele>820.14</ele>
        <time>2018-04-01T10:19:05Z</time>
      </trkpt>
      <trkpt lat="44.86738" lon="5.18832">
        <ele>820.14</ele>
        <time>2018-04-01T10:19:21Z</time>
      </trkpt>
      <trkpt lat="44.86745" lon="5.18832">
        <ele>819.18</ele>
        <time>2018-04-01T10:19:36Z</time>
      </trkpt>
      <trkpt lat="44.86752" lon="5.18828">
        <ele>816.3</ele>
        <time>2018-04-01T10:19:49Z</time>
      </trkpt>
      <trkpt lat="44.86763" lon="5.18816">
        <ele>814.85</ele>
        <time>2018-04-01T10:20:09Z</time>
      </trkpt>
      <trkpt lat="44.86768" lon="5.18803">
        <ele>813.89</ele>
        <time>2018-04-01T10:20:25Z</time>
      </trkpt>
      <trkpt lat="44.86769" lon="5.18792">
        <ele>815.34</ele>
        <time>2018-04-01T10:20:44Z</time>
      </trkpt>
      <trkpt lat="44.86767" lon="5.18789">
        <ele>814.85</ele>
        <time>2018-04-01T10:21:04Z</time>
      </trkpt>
      <trkpt lat="44.86766" lon="5.18796">
        <ele>812.45</ele>
        <time>2018-04-01T10:21:11Z</time>
      </trkpt>
      <trkpt lat="44.86769" lon="5.18814">
        <ele>814.85</ele>
        <time>2018-04-01T10:21:25Z</time>
      </trkpt>
      <trkpt lat="44.86772" lon="5.1883">
        <ele>817.26</ele>
        <time>2018-04-01T10:21:37Z</time>
      </trkpt>
      <trkpt lat="44.86773" lon="5.18848">
        <ele>820.14</ele>
        <time>2018-04-01T10:21:48Z</time>
      </trkpt>
      <trkpt lat="44.86776" lon="5.18853">
        <ele>818.7</ele>
        <time>2018-04-01T10:21:52Z</time>
      </trkpt>
      <trkpt lat="44.86783" lon="5.18856">
        <ele>818.7</ele>
        <time>2018-04-01T10:22:05Z</time>
      </trkpt>
      <trkpt lat="44.86782" lon="5.18854">
        <ele>819.18</ele>
        <time>2018-04-01T10:22:23Z</time>
      </trkpt>
      <trkpt lat="44.86777" lon="5.18842">
        <ele>817.74</ele>
        <time>2018-04-01T10:22:37Z</time>
      </trkpt>
      <trkpt lat="44.86776" lon="5.18827">
        <ele>814.37</ele>
        <time>2018-04-01T10:22:50Z</time>
      </trkpt>
      <trkpt lat="44.86769" lon="5.18816">
        <ele>812.45</ele>
        <time>2018-04-01T10:23:07Z</time>
      </trkpt>
      <trkpt lat="44.86765" lon="5.18821">
        <ele>813.89</ele>
        <time>2018-04-01T10:23:13Z</time>
      </trkpt>
      <trkpt lat="44.86763" lon="5.18823">
        <ele>814.85</ele>
        <time>2018-04-01T10:23:16Z</time>
      </trkpt>
      <trkpt lat="44.86753" lon="5.1883">
        <ele>819.18</ele>
        <time>2018-04-01T10:23:32Z</time>
      </trkpt>
      <trkpt lat="44.86752" lon="5.1883">
        <ele>819.18</ele>
        <time>2018-04-01T10:23:33Z</time>
      </trkpt>
      <trkpt lat="44.86735" lon="5.18829">
        <ele>820.14</ele>
        <time>2018-04-01T10:23:47Z</time>
      </trkpt>
      <trkpt lat="44.86735" lon="5.1882">
        <ele>821.58</ele>
        <time>2018-04-01T10:24:05Z</time>
      </trkpt>
      <trkpt lat="44.86735" lon="5.18814">
        <ele>822.55</ele>
        <time>2018-04-01T10:24:19Z</time>
      </trkpt>
      <trkpt lat="44.86737" lon="5.18804">
        <ele>823.51</ele>
        <time>2018-04-01T10:24:32Z</time>
      </trkpt>
      <trkpt lat="44.8674" lon="5.18792">
        <ele>825.91</ele>
        <time>2018-04-01T10:24:45Z</time>
      </trkpt>
      <trkpt lat="44.8674" lon="5.18775">
        <ele>828.79</ele>
        <time>2018-04-01T10:25:01Z</time>
      </trkpt>
      <trkpt lat="44.86741" lon="5.18774">
        <ele>828.79</ele>
        <time>2018-04-01T10:25:02Z</time>
      </trkpt>
      <trkpt lat="44.86745" lon="5.18752">
        <ele>831.68</ele>
        <time>2018-04-01T10:25:20Z</time>
      </trkpt>
      <trkpt lat="44.86747" lon="5.18744">
        <ele>832.64</ele>
        <time>2018-04-01T10:25:29Z</time>
      </trkpt>
      <trkpt lat="44.86755" lon="5.1873">
        <ele>835.52</ele>
        <time>2018-04-01T10:25:45Z</time>
      </trkpt>
      <trkpt lat="44.8676" lon="5.18715">
        <ele>836.96</ele>
        <time>2018-04-01T10:26:01Z</time>
      </trkpt>
      <trkpt lat="44.86766" lon="5.187">
        <ele>838.89</ele>
        <time>2018-04-01T10:26:16Z</time>
      </trkpt>
      <trkpt lat="44.8677" lon="5.18688">
        <ele>838.41</ele>
        <time>2018-04-01T10:26:27Z</time>
      </trkpt>
      <trkpt lat="44.86768" lon="5.18687">
        <ele>840.33</ele>
        <time>2018-04-01T10:26:41Z</time>
      </trkpt>
      <trkpt lat="44.86765" lon="5.18691">
        <ele>840.33</ele>
        <time>2018-04-01T10:26:46Z</time>
      </trkpt>
      <trkpt lat="44.86753" lon="5.18692">
        <ele>843.21</ele>
        <time>2018-04-01T10:27:03Z</time>
      </trkpt>
      <trkpt lat="44.8675" lon="5.18692">
        <ele>844.66</ele>
        <time>2018-04-01T10:27:06Z</time>
      </trkpt>
      <trkpt lat="44.86741" lon="5.1869">
        <ele>846.58</ele>
        <time>2018-04-01T10:27:21Z</time>
      </trkpt>
      <trkpt lat="44.86729" lon="5.18691">
        <ele>848.02</ele>
        <time>2018-04-01T10:27:35Z</time>
      </trkpt>
      <trkpt lat="44.86722" lon="5.18691">
        <ele>848.5</ele>
        <time>2018-04-01T10:27:52Z</time>
      </trkpt>
      <trkpt lat="44.86719" lon="5.18697">
        <ele>848.5</ele>
        <time>2018-04-01T10:28:16Z</time>
      </trkpt>
      <trkpt lat="44.86716" lon="5.18694">
        <ele>848.02</ele>
        <time>2018-04-01T10:28:36Z</time>
      </trkpt>
      <trkpt lat="44.86712" lon="5.18688">
        <ele>849.46</ele>
        <time>2018-04-01T10:28:54Z</time>
      </trkpt>
      <trkpt lat="44.86703" lon="5.18686">
        <ele>850.9</ele>
        <time>2018-04-01T10:29:08Z</time>
      </trkpt>
      <trkpt lat="44.86696" lon="5.18678">
        <ele>853.31</ele>
        <time>2018-04-01T10:29:21Z</time>
      </trkpt>
      <trkpt lat="44.86685" lon="5.18674">
        <ele>855.71</ele>
        <time>2018-04-01T10:29:37Z</time>
      </trkpt>
      <trkpt lat="44.86671" lon="5.18672">
        <ele>858.59</ele>
        <time>2018-04-01T10:29:55Z</time>
      </trkpt>
      <trkpt lat="44.86659" lon="5.1867">
        <ele>861.48</ele>
        <time>2018-04-01T10:30:11Z</time>
      </trkpt>
      <trkpt lat="44.86649" lon="5.18665">
        <ele>863.88</ele>
        <time>2018-04-01T10:30:23Z</time>
      </trkpt>
      <trkpt lat="44.86646" lon="5.18656">
        <ele>863.88</ele>
        <time>2018-04-01T10:30:37Z</time>
      </trkpt>
      <trkpt lat="44.86643" lon="5.18652">
        <ele>864.84</ele>
        <time>2018-04-01T10:30:50Z</time>
      </trkpt>
      <trkpt lat="44.86641" lon="5.18645">
        <ele>866.29</ele>
        <time>2018-04-01T10:31:01Z</time>
      </trkpt>
      <trkpt lat="44.86636" lon="5.18642">
        <ele>868.21</ele>
        <time>2018-04-01T10:31:11Z</time>
      </trkpt>
      <trkpt lat="44.86635" lon="5.18636">
        <ele>869.65</ele>
        <time>2018-04-01T10:31:22Z</time>
      </trkpt>
      <trkpt lat="44.86636" lon="5.1863">
        <ele>873.5</ele>
        <time>2018-04-01T10:31:32Z</time>
      </trkpt>
      <trkpt lat="44.86636" lon="5.18628">
        <ele>873.5</ele>
        <time>2018-04-01T10:31:33Z</time>
      </trkpt>
      <trkpt lat="44.86633" lon="5.18619">
        <ele>873.01</ele>
        <time>2018-04-01T10:31:44Z</time>
      </trkpt>
      <trkpt lat="44.86636" lon="5.18613">
        <ele>875.9</ele>
        <time>2018-04-01T10:31:57Z</time>
      </trkpt>
      <trkpt lat="44.86638" lon="5.18609">
        <ele>874.46</ele>
        <time>2018-04-01T10:32:06Z</time>
      </trkpt>
      <trkpt lat="44.86637" lon="5.1861">
        <ele>875.9</ele>
        <time>2018-04-01T10:32:08Z</time>
      </trkpt>
      <trkpt lat="44.86634" lon="5.18603">
        <ele>877.34</ele>
        <time>2018-04-01T10:32:25Z</time>
      </trkpt>
      <trkpt lat="44.86628" lon="5.18598">
        <ele>879.74</ele>
        <time>2018-04-01T10:32:37Z</time>
      </trkpt>
      <trkpt lat="44.86618" lon="5.18588">
        <ele>882.15</ele>
        <time>2018-04-01T10:32:53Z</time>
      </trkpt>
      <trkpt lat="44.86609" lon="5.18586">
        <ele>884.07</ele>
        <time>2018-04-01T10:33:08Z</time>
      </trkpt>
      <trkpt lat="44.86605" lon="5.18569">
        <ele>886.47</ele>
        <time>2018-04-01T10:33:23Z</time>
      </trkpt>
      <trkpt lat="44.86602" lon="5.18556">
        <ele>888.88</ele>
        <time>2018-04-01T10:33:39Z</time>
      </trkpt>
      <trkpt lat="44.86595" lon="5.18548">
        <ele>890.8</ele>
        <time>2018-04-01T10:33:59Z</time>
      </trkpt>
      <trkpt lat="44.86593" lon="5.18548">
        <ele>886.47</ele>
        <time>2018-04-01T10:34:03Z</time>
      </trkpt>
      <trkpt lat="44.86592" lon="5.18548">
        <ele>892.24</ele>
        <time>2018-04-01T10:34:04Z</time>
      </trkpt>
      <trkpt lat="44.8659" lon="5.18548">
        <ele>889.36</ele>
        <time>2018-04-01T10:34:07Z</time>
      </trkpt>
      <trkpt lat="44.86588" lon="5.18544">
        <ele>891.76</ele>
        <time>2018-04-01T10:34:20Z</time>
      </trkpt>
      <trkpt lat="44.86585" lon="5.18539">
        <ele>894.64</ele>
        <time>2018-04-01T10:34:34Z</time>
      </trkpt>
      <trkpt lat="44.86576" lon="5.18531">
        <ele>897.53</ele>
        <time>2018-04-01T10:34:50Z</time>
      </trkpt>
      <trkpt lat="44.86565" lon="5.1852">
        <ele>899.93</ele>
        <time>2018-04-01T10:35:07Z</time>
      </trkpt>
      <trkpt lat="44.86561" lon="5.18518">
        <ele>901.85</ele>
        <time>2018-04-01T10:35:13Z</time>
      </trkpt>
      <trkpt lat="44.86551" lon="5.18516">
        <ele>903.78</ele>
        <time>2018-04-01T10:35:29Z</time>
      </trkpt>
      <trkpt lat="44.86541" lon="5.18508">
        <ele>905.7</ele>
        <time>2018-04-01T10:35:46Z</time>
      </trkpt>
      <trkpt lat="44.86534" lon="5.185">
        <ele>909.06</ele>
        <time>2018-04-01T10:36:06Z</time>
      </trkpt>
      <trkpt lat="44.86524" lon="5.18492">
        <ele>911.47</ele>
        <time>2018-04-01T10:36:26Z</time>
      </trkpt>
      <trkpt lat="44.86514" lon="5.18488">
        <ele>913.39</ele>
        <time>2018-04-01T10:36:40Z</time>
      </trkpt>
      <trkpt lat="44.86501" lon="5.18488">
        <ele>914.83</ele>
        <time>2018-04-01T10:36:56Z</time>
      </trkpt>
      <trkpt lat="44.86489" lon="5.18484">
        <ele>917.24</ele>
        <time>2018-04-01T10:37:12Z</time>
      </trkpt>
      <trkpt lat="44.86481" lon="5.18481">
        <ele>919.16</ele>
        <time>2018-04-01T10:37:26Z</time>
      </trkpt>
      <trkpt lat="44.86474" lon="5.1848">
        <ele>921.08</ele>
        <time>2018-04-01T10:37:40Z</time>
      </trkpt>
      <trkpt lat="44.86466" lon="5.18478">
        <ele>922.04</ele>
        <time>2018-04-01T10:37:56Z</time>
      </trkpt>
      <trkpt lat="44.86456" lon="5.18474">
        <ele>923.96</ele>
        <time>2018-04-01T10:38:10Z</time>
      </trkpt>
      <trkpt lat="44.86444" lon="5.18466">
        <ele>926.85</ele>
        <time>2018-04-01T10:38:26Z</time>
      </trkpt>
      <trkpt lat="44.86436" lon="5.18456">
        <ele>929.73</ele>
        <time>2018-04-01T10:38:41Z</time>
      </trkpt>
      <trkpt lat="44.8643" lon="5.18451">
        <ele>931.65</ele>
        <time>2018-04-01T10:38:55Z</time>
      </trkpt>
      <trkpt lat="44.86433" lon="5.1845">
        <ele>933.58</ele>
        <time>2018-04-01T10:39:14Z</time>
      </trkpt>
      <trkpt lat="44.86431" lon="5.18449">
        <ele>932.62</ele>
        <time>2018-04-01T10:39:37Z</time>
      </trkpt>
      <trkpt lat="44.86425" lon="5.18461">
        <ele>932.62</ele>
        <time>2018-04-01T10:40:08Z</time>
      </trkpt>
      <trkpt lat="44.86424" lon="5.18443">
        <ele>935.02</ele>
        <time>2018-04-01T10:40:26Z</time>
      </trkpt>
      <trkpt lat="44.86419" lon="5.18434">
        <ele>936.94</ele>
        <time>2018-04-01T10:40:40Z</time>
      </trkpt>
      <trkpt lat="44.86415" lon="5.1843">
        <ele>939.35</ele>
        <time>2018-04-01T10:40:49Z</time>
      </trkpt>
      <trkpt lat="44.86407" lon="5.18426">
        <ele>941.75</ele>
        <time>2018-04-01T10:41:04Z</time>
      </trkpt>
      <trkpt lat="44.86404" lon="5.18418">
        <ele>944.63</ele>
        <time>2018-04-01T10:41:18Z</time>
      </trkpt>
      <trkpt lat="44.864" lon="5.18411">
        <ele>947.04</ele>
        <time>2018-04-01T10:41:33Z</time>
      </trkpt>
      <trkpt lat="44.86393" lon="5.18406">
        <ele>948.96</ele>
        <time>2018-04-01T10:41:47Z</time>
      </trkpt>
      <trkpt lat="44.86389" lon="5.18402">
        <ele>950.88</ele>
        <time>2018-04-01T10:41:59Z</time>
      </trkpt>
      <trkpt lat="44.86381" lon="5.18399">
        <ele>952.8</ele>
        <time>2018-04-01T10:42:12Z</time>
      </trkpt>
      <trkpt lat="44.86377" lon="5.18393">
        <ele>954.25</ele>
        <time>2018-04-01T10:42:26Z</time>
      </trkpt>
      <trkpt lat="44.86375" lon="5.18399">
        <ele>954.25</ele>
        <time>2018-04-01T10:42:54Z</time>
      </trkpt>
      <trkpt lat="44.86375" lon="5.18401">
        <ele>954.25</ele>
        <time>2018-04-01T10:43:11Z</time>
      </trkpt>
      <trkpt lat="44.8637" lon="5.18402">
        <ele>955.21</ele>
        <time>2018-04-01T10:43:35Z</time>
      </trkpt>
      <trkpt lat="44.86377" lon="5.18404">
        <ele>954.73</ele>
        <time>2018-04-01T10:43:56Z</time>
      </trkpt>
      <trkpt lat="44.86381" lon="5.18399">
        <ele>955.21</ele>
        <time>2018-04-01T10:44:18Z</time>
      </trkpt>
      <trkpt lat="44.8638" lon="5.18401">
        <ele>955.69</ele>
        <time>2018-04-01T10:44:38Z</time>
      </trkpt>
      <trkpt lat="44.8638" lon="5.18401">
        <ele>955.69</ele>
        <time>2018-04-01T10:45:04Z</time>
      </trkpt>
      <trkpt lat="44.8637" lon="5.18392">
        <ele>957.13</ele>
        <time>2018-04-01T10:45:24Z</time>
      </trkpt>
      <trkpt lat="44.86367" lon="5.18387">
        <ele>959.53</ele>
        <time>2018-04-01T10:45:37Z</time>
      </trkpt>
      <trkpt lat="44.86364" lon="5.18382">
        <ele>961.94</ele>
        <time>2018-04-01T10:45:52Z</time>
      </trkpt>
      <trkpt lat="44.86354" lon="5.18378">
        <ele>963.86</ele>
        <time>2018-04-01T10:46:07Z</time>
      </trkpt>
      <trkpt lat="44.86345" lon="5.18371">
        <ele>967.22</ele>
        <time>2018-04-01T10:46:22Z</time>
      </trkpt>
      <trkpt lat="44.86342" lon="5.18367">
        <ele>969.15</ele>
        <time>2018-04-01T10:46:35Z</time>
      </trkpt>
      <trkpt lat="44.86336" lon="5.18355">
        <ele>971.07</ele>
        <time>2018-04-01T10:46:49Z</time>
      </trkpt>
      <trkpt lat="44.86332" lon="5.18347">
        <ele>973.95</ele>
        <time>2018-04-01T10:47:00Z</time>
      </trkpt>
      <trkpt lat="44.86323" lon="5.18348">
        <ele>974.91</ele>
        <time>2018-04-01T10:47:17Z</time>
      </trkpt>
      <trkpt lat="44.86316" lon="5.18348">
        <ele>975.88</ele>
        <time>2018-04-01T10:47:45Z</time>
      </trkpt>
      <trkpt lat="44.86313" lon="5.18349">
        <ele>975.88</ele>
        <time>2018-04-01T10:47:58Z</time>
      </trkpt>
      <trkpt lat="44.86303" lon="5.18347">
        <ele>977.32</ele>
        <time>2018-04-01T10:48:13Z</time>
      </trkpt>
      <trkpt lat="44.86296" lon="5.18345">
        <ele>978.28</ele>
        <time>2018-04-01T10:48:27Z</time>
      </trkpt>
      <trkpt lat="44.86281" lon="5.1834">
        <ele>980.68</ele>
        <time>2018-04-01T10:48:42Z</time>
      </trkpt>
      <trkpt lat="44.86268" lon="5.18335">
        <ele>981.64</ele>
        <time>2018-04-01T10:48:58Z</time>
      </trkpt>
      <trkpt lat="44.86257" lon="5.18333">
        <ele>983.57</ele>
        <time>2018-04-01T10:49:11Z</time>
      </trkpt>
      <trkpt lat="44.86241" lon="5.18326">
        <ele>986.45</ele>
        <time>2018-04-01T10:49:27Z</time>
      </trkpt>
      <trkpt lat="44.86227" lon="5.18324">
        <ele>986.93</ele>
        <time>2018-04-01T10:49:41Z</time>
      </trkpt>
      <trkpt lat="44.86217" lon="5.18322">
        <ele>987.41</ele>
        <time>2018-04-01T10:49:56Z</time>
      </trkpt>
      <trkpt lat="44.86202" lon="5.18321">
        <ele>988.85</ele>
        <time>2018-04-01T10:50:13Z</time>
      </trkpt>
      <trkpt lat="44.86192" lon="5.18318">
        <ele>989.81</ele>
        <time>2018-04-01T10:50:26Z</time>
      </trkpt>
      <trkpt lat="44.86178" lon="5.18312">
        <ele>991.74</ele>
        <time>2018-04-01T10:50:43Z</time>
      </trkpt>
      <trkpt lat="44.86174" lon="5.18308">
        <ele>993.66</ele>
        <time>2018-04-01T10:50:59Z</time>
      </trkpt>
      <trkpt lat="44.86182" lon="5.18302">
        <ele>995.58</ele>
        <time>2018-04-01T10:51:11Z</time>
      </trkpt>
      <trkpt lat="44.86194" lon="5.18296">
        <ele>997.51</ele>
        <time>2018-04-01T10:51:27Z</time>
      </trkpt>
      <trkpt lat="44.86207" lon="5.18289">
        <ele>999.43</ele>
        <time>2018-04-01T10:51:42Z</time>
      </trkpt>
      <trkpt lat="44.86215" lon="5.18282">
        <ele>1002.31</ele>
        <time>2018-04-01T10:51:57Z</time>
      </trkpt>
      <trkpt lat="44.86219" lon="5.18279">
        <ele>1001.35</ele>
        <time>2018-04-01T10:52:21Z</time>
      </trkpt>
      <trkpt lat="44.86228" lon="5.18273">
        <ele>1003.75</ele>
        <time>2018-04-01T10:52:38Z</time>
      </trkpt>
      <trkpt lat="44.86241" lon="5.18266">
        <ele>1005.2</ele>
        <time>2018-04-01T10:52:51Z</time>
      </trkpt>
      <trkpt lat="44.86252" lon="5.1826">
        <ele>1007.12</ele>
        <time>2018-04-01T10:53:05Z</time>
      </trkpt>
      <trkpt lat="44.86261" lon="5.18253">
        <ele>1007.6</ele>
        <time>2018-04-01T10:53:20Z</time>
      </trkpt>
      <trkpt lat="44.86275" lon="5.18241">
        <ele>1010</ele>
        <time>2018-04-01T10:53:38Z</time>
      </trkpt>
      <trkpt lat="44.86288" lon="5.18233">
        <ele>1011.93</ele>
        <time>2018-04-01T10:53:54Z</time>
      </trkpt>
      <trkpt lat="44.86305" lon="5.1822">
        <ele>1012.89</ele>
        <time>2018-04-01T10:54:13Z</time>
      </trkpt>
      <trkpt lat="44.86318" lon="5.18208">
        <ele>1012.89</ele>
        <time>2018-04-01T10:54:28Z</time>
      </trkpt>
      <trkpt lat="44.8632" lon="5.182">
        <ele>1013.85</ele>
        <time>2018-04-01T10:54:43Z</time>
      </trkpt>
      <trkpt lat="44.86311" lon="5.18197">
        <ele>1015.77</ele>
        <time>2018-04-01T10:54:57Z</time>
      </trkpt>
      <trkpt lat="44.86304" lon="5.18194">
        <ele>1016.73</ele>
        <time>2018-04-01T10:55:10Z</time>
      </trkpt>
      <trkpt lat="44.86302" lon="5.18193">
        <ele>1017.69</ele>
        <time>2018-04-01T10:55:12Z</time>
      </trkpt>
      <trkpt lat="44.86291" lon="5.18192">
        <ele>1019.62</ele>
        <time>2018-04-01T10:55:26Z</time>
      </trkpt>
      <trkpt lat="44.86277" lon="5.18192">
        <ele>1021.54</ele>
        <time>2018-04-01T10:55:42Z</time>
      </trkpt>
      <trkpt lat="44.86274" lon="5.18192">
        <ele>1021.54</ele>
        <time>2018-04-01T10:55:45Z</time>
      </trkpt>
      <trkpt lat="44.86265" lon="5.18191">
        <ele>1023.46</ele>
        <time>2018-04-01T10:55:58Z</time>
      </trkpt>
      <trkpt lat="44.86259" lon="5.18189">
        <ele>1023.46</ele>
        <time>2018-04-01T10:56:11Z</time>
      </trkpt>
      <trkpt lat="44.86258" lon="5.18191">
        <ele>1023.94</ele>
        <time>2018-04-01T10:56:30Z</time>
      </trkpt>
      <trkpt lat="44.8626" lon="5.18193">
        <ele>1022.5</ele>
        <time>2018-04-01T10:56:41Z</time>
      </trkpt>
      <trkpt lat="44.86259" lon="5.18194">
        <ele>1022.98</ele>
        <time>2018-04-01T10:56:53Z</time>
      </trkpt>
      <trkpt lat="44.86257" lon="5.18196">
        <ele>1022.98</ele>
        <time>2018-04-01T10:57:16Z</time>
      </trkpt>
      <trkpt lat="44.86257" lon="5.18197">
        <ele>1022.5</ele>
        <time>2018-04-01T10:57:44Z</time>
      </trkpt>
      <trkpt lat="44.86257" lon="5.18196">
        <ele>1021.54</ele>
        <time>2018-04-01T10:58:11Z</time>
      </trkpt>
      <trkpt lat="44.86257" lon="5.18197">
        <ele>1023.46</ele>
        <time>2018-04-01T10:58:31Z</time>
      </trkpt>
      <trkpt lat="44.86257" lon="5.18198">
        <ele>1022.02</ele>
        <time>2018-04-01T10:58:56Z</time>
      </trkpt>
      <trkpt lat="44.86257" lon="5.18199">
        <ele>1022.02</ele>
        <time>2018-04-01T10:59:38Z</time>
      </trkpt>
      <trkpt lat="44.86255" lon="5.18194">
        <ele>1022.5</ele>
        <time>2018-04-01T11:00:07Z</time>
      </trkpt>
      <trkpt lat="44.86255" lon="5.18195">
        <ele>1021.54</ele>
        <time>2018-04-01T11:00:31Z</time>
      </trkpt>
      <trkpt lat="44.86257" lon="5.18204">
        <ele>1021.06</ele>
        <time>2018-04-01T11:01:06Z</time>
      </trkpt>
      <trkpt lat="44.86255" lon="5.18206">
        <ele>1021.06</ele>
        <time>2018-04-01T11:01:26Z</time>
      </trkpt>
      <trkpt lat="44.86255" lon="5.18206">
        <ele>1021.06</ele>
        <time>2018-04-01T11:01:47Z</time>
      </trkpt>
      <trkpt lat="44.86257" lon="5.18201">
        <ele>1021.06</ele>
        <time>2018-04-01T11:02:14Z</time>
      </trkpt>
      <trkpt lat="44.86256" lon="5.18202">
        <ele>1020.1</ele>
        <time>2018-04-01T11:02:41Z</time>
      </trkpt>
      <trkpt lat="44.86259" lon="5.182">
        <ele>1020.1</ele>
        <time>2018-04-01T11:03:07Z</time>
      </trkpt>
      <trkpt lat="44.86256" lon="5.18203">
        <ele>1020.58</ele>
        <time>2018-04-01T11:03:31Z</time>
      </trkpt>
      <trkpt lat="44.86256" lon="5.18203">
        <ele>1020.58</ele>
        <time>2018-04-01T11:03:56Z</time>
      </trkpt>
      <trkpt lat="44.86259" lon="5.182">
        <ele>1020.1</ele>
        <time>2018-04-01T11:04:21Z</time>
      </trkpt>
      <trkpt lat="44.86257" lon="5.18201">
        <ele>1021.06</ele>
        <time>2018-04-01T11:04:45Z</time>
      </trkpt>
      <trkpt lat="44.86258" lon="5.18203">
        <ele>1021.06</ele>
        <time>2018-04-01T11:05:09Z</time>
      </trkpt>
      <trkpt lat="44.8626" lon="5.182">
        <ele>1020.58</ele>
        <time>2018-04-01T11:05:35Z</time>
      </trkpt>
      <trkpt lat="44.8626" lon="5.182">
        <ele>1020.58</ele>
        <time>2018-04-01T11:06:11Z</time>
      </trkpt>
      <trkpt lat="44.86259" lon="5.182">
        <ele>1021.06</ele>
        <time>2018-04-01T11:06:43Z</time>
      </trkpt>
      <trkpt lat="44.86258" lon="5.18202">
        <ele>1021.54</ele>
        <time>2018-04-01T11:07:10Z</time>
      </trkpt>
      <trkpt lat="44.86259" lon="5.18201">
        <ele>1021.06</ele>
        <time>2018-04-01T11:07:40Z</time>
      </trkpt>
      <trkpt lat="44.8626" lon="5.182">
        <ele>1021.54</ele>
        <time>2018-04-01T11:08:02Z</time>
      </trkpt>
      <trkpt lat="44.86259" lon="5.18202">
        <ele>1021.06</ele>
        <time>2018-04-01T11:08:30Z</time>
      </trkpt>
      <trkpt lat="44.86261" lon="5.18203">
        <ele>1021.06</ele>
        <time>2018-04-01T11:08:56Z</time>
      </trkpt>
      <trkpt lat="44.8626" lon="5.18201">
        <ele>1021.54</ele>
        <time>2018-04-01T11:09:18Z</time>
      </trkpt>
      <trkpt lat="44.8626" lon="5.18196">
        <ele>1021.54</ele>
        <time>2018-04-01T11:09:47Z</time>
      </trkpt>
      <trkpt lat="44.8626" lon="5.18199">
        <ele>1021.06</ele>
        <time>2018-04-01T11:10:15Z</time>
      </trkpt>
      <trkpt lat="44.8626" lon="5.18199">
        <ele>1021.06</ele>
        <time>2018-04-01T11:10:51Z</time>
      </trkpt>
      <trkpt lat="44.86259" lon="5.1819">
        <ele>1022.02</ele>
        <time>2018-04-01T11:11:11Z</time>
      </trkpt>
      <trkpt lat="44.86249" lon="5.18192">
        <ele>1021.54</ele>
        <time>2018-04-01T11:11:26Z</time>
      </trkpt>
      <trkpt lat="44.86247" lon="5.18191">
        <ele>1022.5</ele>
        <time>2018-04-01T11:11:28Z</time>
      </trkpt>
      <trkpt lat="44.8624" lon="5.18188">
        <ele>1023.46</ele>
        <time>2018-04-01T11:11:42Z</time>
      </trkpt>
      <trkpt lat="44.86229" lon="5.18184">
        <ele>1023.94</ele>
        <time>2018-04-01T11:12:00Z</time>
      </trkpt>
      <trkpt lat="44.86224" lon="5.18176">
        <ele>1024.9</ele>
        <time>2018-04-01T11:12:09Z</time>
      </trkpt>
      <trkpt lat="44.86209" lon="5.18163">
        <ele>1024.9</ele>
        <time>2018-04-01T11:12:24Z</time>
      </trkpt>
      <trkpt lat="44.86199" lon="5.18154">
        <ele>1028.27</ele>
        <time>2018-04-01T11:12:37Z</time>
      </trkpt>
      <trkpt lat="44.86197" lon="5.18154">
        <ele>1028.27</ele>
        <time>2018-04-01T11:12:39Z</time>
      </trkpt>
      <trkpt lat="44.86189" lon="5.18155">
        <ele>1030.19</ele>
        <time>2018-04-01T11:12:49Z</time>
      </trkpt>
      <trkpt lat="44.86174" lon="5.18154">
        <ele>1032.11</ele>
        <time>2018-04-01T11:13:04Z</time>
      </trkpt>
      <trkpt lat="44.86161" lon="5.18151">
        <ele>1032.59</ele>
        <time>2018-04-01T11:13:18Z</time>
      </trkpt>
      <trkpt lat="44.86149" lon="5.18152">
        <ele>1033.07</ele>
        <time>2018-04-01T11:13:30Z</time>
      </trkpt>
      <trkpt lat="44.86137" lon="5.18155">
        <ele>1032.11</ele>
        <time>2018-04-01T11:13:44Z</time>
      </trkpt>
      <trkpt lat="44.86126" lon="5.18159">
        <ele>1028.75</ele>
        <time>2018-04-01T11:13:55Z</time>
      </trkpt>
      <trkpt lat="44.8612" lon="5.18161">
        <ele>1028.27</ele>
        <time>2018-04-01T11:14:01Z</time>
      </trkpt>
      <trkpt lat="44.86114" lon="5.18158">
        <ele>1028.27</ele>
        <time>2018-04-01T11:14:07Z</time>
      </trkpt>
      <trkpt lat="44.86106" lon="5.18155">
        <ele>1026.34</ele>
        <time>2018-04-01T11:14:20Z</time>
      </trkpt>
      <trkpt lat="44.86101" lon="5.18155">
        <ele>1025.86</ele>
        <time>2018-04-01T11:14:38Z</time>
      </trkpt>
      <trkpt lat="44.86087" lon="5.18146">
        <ele>1023.46</ele>
        <time>2018-04-01T11:14:52Z</time>
      </trkpt>
      <trkpt lat="44.86075" lon="5.1814">
        <ele>1021.54</ele>
        <time>2018-04-01T11:15:05Z</time>
      </trkpt>
      <trkpt lat="44.86065" lon="5.1813">
        <ele>1018.65</ele>
        <time>2018-04-01T11:15:17Z</time>
      </trkpt>
      <trkpt lat="44.86052" lon="5.18123">
        <ele>1016.73</ele>
        <time>2018-04-01T11:15:32Z</time>
      </trkpt>
      <trkpt lat="44.86042" lon="5.1812">
        <ele>1015.29</ele>
        <time>2018-04-01T11:15:42Z</time>
      </trkpt>
      <trkpt lat="44.86026" lon="5.18123">
        <ele>1014.81</ele>
        <time>2018-04-01T11:15:55Z</time>
      </trkpt>
      <trkpt lat="44.86015" lon="5.18123">
        <ele>1013.37</ele>
        <time>2018-04-01T11:16:06Z</time>
      </trkpt>
      <trkpt lat="44.86005" lon="5.18122">
        <ele>1013.37</ele>
        <time>2018-04-01T11:16:14Z</time>
      </trkpt>
      <trkpt lat="44.86002" lon="5.18123">
        <ele>1012.89</ele>
        <time>2018-04-01T11:16:17Z</time>
      </trkpt>
      <trkpt lat="44.85999" lon="5.18124">
        <ele>1013.85</ele>
        <time>2018-04-01T11:16:30Z</time>
      </trkpt>
      <trkpt lat="44.85989" lon="5.18124">
        <ele>1010.96</ele>
        <time>2018-04-01T11:16:44Z</time>
      </trkpt>
      <trkpt lat="44.85991" lon="5.18125">
        <ele>1010.96</ele>
        <time>2018-04-01T11:16:47Z</time>
      </trkpt>
      <trkpt lat="44.85994" lon="5.18126">
        <ele>1011.93</ele>
        <time>2018-04-01T11:16:50Z</time>
      </trkpt>
      <trkpt lat="44.85997" lon="5.18118">
        <ele>1012.89</ele>
        <time>2018-04-01T11:16:56Z</time>
      </trkpt>
      <trkpt lat="44.85986" lon="5.18125">
        <ele>1011.93</ele>
        <time>2018-04-01T11:17:10Z</time>
      </trkpt>
      <trkpt lat="44.85977" lon="5.18125">
        <ele>1009.52</ele>
        <time>2018-04-01T11:17:22Z</time>
      </trkpt>
      <trkpt lat="44.8596" lon="5.18127">
        <ele>1007.6</ele>
        <time>2018-04-01T11:17:37Z</time>
      </trkpt>
      <trkpt lat="44.85955" lon="5.18129">
        <ele>1007.12</ele>
        <time>2018-04-01T11:17:50Z</time>
      </trkpt>
      <trkpt lat="44.85949" lon="5.18129">
        <ele>1006.64</ele>
        <time>2018-04-01T11:18:05Z</time>
      </trkpt>
      <trkpt lat="44.85947" lon="5.1813">
        <ele>1005.2</ele>
        <time>2018-04-01T11:18:07Z</time>
      </trkpt>
      <trkpt lat="44.85929" lon="5.18132">
        <ele>1002.31</ele>
        <time>2018-04-01T11:18:24Z</time>
      </trkpt>
      <trkpt lat="44.85915" lon="5.18132">
        <ele>1000.39</ele>
        <time>2018-04-01T11:18:39Z</time>
      </trkpt>
      <trkpt lat="44.85904" lon="5.18134">
        <ele>998.47</ele>
        <time>2018-04-01T11:18:50Z</time>
      </trkpt>
      <trkpt lat="44.85889" lon="5.18137">
        <ele>996.54</ele>
        <time>2018-04-01T11:19:04Z</time>
      </trkpt>
      <trkpt lat="44.85876" lon="5.1814">
        <ele>993.66</ele>
        <time>2018-04-01T11:19:16Z</time>
      </trkpt>
      <trkpt lat="44.85865" lon="5.18148">
        <ele>990.3</ele>
        <time>2018-04-01T11:19:27Z</time>
      </trkpt>
      <trkpt lat="44.85864" lon="5.18149">
        <ele>990.78</ele>
        <time>2018-04-01T11:19:28Z</time>
      </trkpt>
      <trkpt lat="44.85857" lon="5.18156">
        <ele>987.41</ele>
        <time>2018-04-01T11:19:36Z</time>
      </trkpt>
      <trkpt lat="44.85854" lon="5.18158">
        <ele>986.45</ele>
        <time>2018-04-01T11:19:39Z</time>
      </trkpt>
      <trkpt lat="44.8584" lon="5.18168">
        <ele>983.09</ele>
        <time>2018-04-01T11:19:54Z</time>
      </trkpt>
      <trkpt lat="44.8583" lon="5.18172">
        <ele>981.64</ele>
        <time>2018-04-01T11:20:05Z</time>
      </trkpt>
      <trkpt lat="44.85823" lon="5.18174">
        <ele>979.72</ele>
        <time>2018-04-01T11:20:12Z</time>
      </trkpt>
      <trkpt lat="44.85812" lon="5.1818">
        <ele>977.8</ele>
        <time>2018-04-01T11:20:24Z</time>
      </trkpt>
      <trkpt lat="44.85803" lon="5.18186">
        <ele>975.88</ele>
        <time>2018-04-01T11:20:32Z</time>
      </trkpt>
      <trkpt lat="44.85788" lon="5.18198">
        <ele>972.51</ele>
        <time>2018-04-01T11:20:47Z</time>
      </trkpt>
      <trkpt lat="44.85776" lon="5.18209">
        <ele>970.11</ele>
        <time>2018-04-01T11:20:58Z</time>
      </trkpt>
      <trkpt lat="44.85765" lon="5.18221">
        <ele>968.67</ele>
        <time>2018-04-01T11:21:11Z</time>
      </trkpt>
      <trkpt lat="44.85763" lon="5.18225">
        <ele>968.18</ele>
        <time>2018-04-01T11:21:15Z</time>
      </trkpt>
      <trkpt lat="44.85747" lon="5.1824">
        <ele>964.34</ele>
        <time>2018-04-01T11:21:30Z</time>
      </trkpt>
      <trkpt lat="44.85742" lon="5.1825">
        <ele>962.42</ele>
        <time>2018-04-01T11:21:39Z</time>
      </trkpt>
      <trkpt lat="44.85731" lon="5.18256">
        <ele>959.53</ele>
        <time>2018-04-01T11:21:51Z</time>
      </trkpt>
      <trkpt lat="44.85729" lon="5.18259">
        <ele>958.57</ele>
        <time>2018-04-01T11:22:01Z</time>
      </trkpt>
      <trkpt lat="44.85727" lon="5.1826">
        <ele>958.57</ele>
        <time>2018-04-01T11:22:03Z</time>
      </trkpt>
      <trkpt lat="44.85711" lon="5.18267">
        <ele>958.57</ele>
        <time>2018-04-01T11:22:17Z</time>
      </trkpt>
      <trkpt lat="44.85699" lon="5.18271">
        <ele>955.69</ele>
        <time>2018-04-01T11:22:28Z</time>
      </trkpt>
      <trkpt lat="44.85694" lon="5.18276">
        <ele>957.61</ele>
        <time>2018-04-01T11:22:34Z</time>
      </trkpt>
      <trkpt lat="44.85681" lon="5.18282">
        <ele>954.25</ele>
        <time>2018-04-01T11:22:48Z</time>
      </trkpt>
      <trkpt lat="44.85669" lon="5.18289">
        <ele>951.84</ele>
        <time>2018-04-01T11:23:01Z</time>
      </trkpt>
      <trkpt lat="44.85657" lon="5.18299">
        <ele>948.48</ele>
        <time>2018-04-01T11:23:13Z</time>
      </trkpt>
      <trkpt lat="44.8565" lon="5.18305">
        <ele>945.59</ele>
        <time>2018-04-01T11:23:22Z</time>
      </trkpt>
      <trkpt lat="44.85643" lon="5.18314">
        <ele>942.23</ele>
        <time>2018-04-01T11:23:32Z</time>
      </trkpt>
      <trkpt lat="44.85634" lon="5.18321">
        <ele>939.35</ele>
        <time>2018-04-01T11:23:41Z</time>
      </trkpt>
      <trkpt lat="44.85622" lon="5.18327">
        <ele>935.98</ele>
        <time>2018-04-01T11:23:53Z</time>
      </trkpt>
      <trkpt lat="44.8561" lon="5.18333">
        <ele>933.58</ele>
        <time>2018-04-01T11:24:07Z</time>
      </trkpt>
      <trkpt lat="44.856" lon="5.1834">
        <ele>930.69</ele>
        <time>2018-04-01T11:24:19Z</time>
      </trkpt>
      <trkpt lat="44.85599" lon="5.1834">
        <ele>930.21</ele>
        <time>2018-04-01T11:24:20Z</time>
      </trkpt>
      <trkpt lat="44.85598" lon="5.18341">
        <ele>930.21</ele>
        <time>2018-04-01T11:24:21Z</time>
      </trkpt>
      <trkpt lat="44.85587" lon="5.18351">
        <ele>926.37</ele>
        <time>2018-04-01T11:24:34Z</time>
      </trkpt>
      <trkpt lat="44.85585" lon="5.18353">
        <ele>925.41</ele>
        <time>2018-04-01T11:24:36Z</time>
      </trkpt>
      <trkpt lat="44.85575" lon="5.18361">
        <ele>922.52</ele>
        <time>2018-04-01T11:24:47Z</time>
      </trkpt>
      <trkpt lat="44.85569" lon="5.18366">
        <ele>920.6</ele>
        <time>2018-04-01T11:24:54Z</time>
      </trkpt>
      <trkpt lat="44.85568" lon="5.1837">
        <ele>919.16</ele>
        <time>2018-04-01T11:24:57Z</time>
      </trkpt>
      <trkpt lat="44.85577" lon="5.18373">
        <ele>917.72</ele>
        <time>2018-04-01T11:25:09Z</time>
      </trkpt>
      <trkpt lat="44.85591" lon="5.18371">
        <ele>916.27</ele>
        <time>2018-04-01T11:25:22Z</time>
      </trkpt>
      <trkpt lat="44.85603" lon="5.18374">
        <ele>913.39</ele>
        <time>2018-04-01T11:25:34Z</time>
      </trkpt>
      <trkpt lat="44.85614" lon="5.18378">
        <ele>910.51</ele>
        <time>2018-04-01T11:25:44Z</time>
      </trkpt>
      <trkpt lat="44.85626" lon="5.18383">
        <ele>907.62</ele>
        <time>2018-04-01T11:25:56Z</time>
      </trkpt>
      <trkpt lat="44.85634" lon="5.1839">
        <ele>904.26</ele>
        <time>2018-04-01T11:26:05Z</time>
      </trkpt>
      <trkpt lat="44.85643" lon="5.18397">
        <ele>901.37</ele>
        <time>2018-04-01T11:26:17Z</time>
      </trkpt>
      <trkpt lat="44.8566" lon="5.18407">
        <ele>898.49</ele>
        <time>2018-04-01T11:26:32Z</time>
      </trkpt>
      <trkpt lat="44.8567" lon="5.18415">
        <ele>895.12</ele>
        <time>2018-04-01T11:26:43Z</time>
      </trkpt>
      <trkpt lat="44.8566" lon="5.1842">
        <ele>892.24</ele>
        <time>2018-04-01T11:26:55Z</time>
      </trkpt>
      <trkpt lat="44.8565" lon="5.18424">
        <ele>888.88</ele>
        <time>2018-04-01T11:27:07Z</time>
      </trkpt>
      <trkpt lat="44.85648" lon="5.18426">
        <ele>888.4</ele>
        <time>2018-04-01T11:27:09Z</time>
      </trkpt>
      <trkpt lat="44.85637" lon="5.18433">
        <ele>885.03</ele>
        <time>2018-04-01T11:27:21Z</time>
      </trkpt>
      <trkpt lat="44.85625" lon="5.18429">
        <ele>882.63</ele>
        <time>2018-04-01T11:27:34Z</time>
      </trkpt>
      <trkpt lat="44.85612" lon="5.18435">
        <ele>879.74</ele>
        <time>2018-04-01T11:27:46Z</time>
      </trkpt>
      <trkpt lat="44.85599" lon="5.18441">
        <ele>876.38</ele>
        <time>2018-04-01T11:27:58Z</time>
      </trkpt>
      <trkpt lat="44.85583" lon="5.18445">
        <ele>873.98</ele>
        <time>2018-04-01T11:28:12Z</time>
      </trkpt>
      <trkpt lat="44.85572" lon="5.18456">
        <ele>870.61</ele>
        <time>2018-04-01T11:28:24Z</time>
      </trkpt>
      <trkpt lat="44.8557" lon="5.18458">
        <ele>870.13</ele>
        <time>2018-04-01T11:28:26Z</time>
      </trkpt>
      <trkpt lat="44.85564" lon="5.18467">
        <ele>866.77</ele>
        <time>2018-04-01T11:28:34Z</time>
      </trkpt>
      <trkpt lat="44.8556" lon="5.18471">
        <ele>865.8</ele>
        <time>2018-04-01T11:28:39Z</time>
      </trkpt>
      <trkpt lat="44.85551" lon="5.18489">
        <ele>863.4</ele>
        <time>2018-04-01T11:28:55Z</time>
      </trkpt>
      <trkpt lat="44.85543" lon="5.18493">
        <ele>862.44</ele>
        <time>2018-04-01T11:29:03Z</time>
      </trkpt>
      <trkpt lat="44.85533" lon="5.18499">
        <ele>861</ele>
        <time>2018-04-01T11:29:16Z</time>
      </trkpt>
      <trkpt lat="44.85527" lon="5.18508">
        <ele>859.08</ele>
        <time>2018-04-01T11:29:31Z</time>
      </trkpt>
      <trkpt lat="44.85526" lon="5.18508">
        <ele>859.56</ele>
        <time>2018-04-01T11:29:45Z</time>
      </trkpt>
      <trkpt lat="44.85517" lon="5.18516">
        <ele>856.19</ele>
        <time>2018-04-01T11:29:58Z</time>
      </trkpt>
      <trkpt lat="44.85513" lon="5.18518">
        <ele>854.75</ele>
        <time>2018-04-01T11:30:03Z</time>
      </trkpt>
      <trkpt lat="44.85504" lon="5.18525">
        <ele>851.87</ele>
        <time>2018-04-01T11:30:15Z</time>
      </trkpt>
      <trkpt lat="44.85497" lon="5.18534">
        <ele>848.98</ele>
        <time>2018-04-01T11:30:27Z</time>
      </trkpt>
      <trkpt lat="44.8549" lon="5.18539">
        <ele>846.58</ele>
        <time>2018-04-01T11:30:40Z</time>
      </trkpt>
      <trkpt lat="44.85484" lon="5.18548">
        <ele>843.69</ele>
        <time>2018-04-01T11:30:53Z</time>
      </trkpt>
      <trkpt lat="44.85485" lon="5.18552">
        <ele>842.25</ele>
        <time>2018-04-01T11:30:58Z</time>
      </trkpt>
      <trkpt lat="44.85476" lon="5.18557">
        <ele>839.37</ele>
        <time>2018-04-01T11:31:10Z</time>
      </trkpt>
      <trkpt lat="44.8547" lon="5.1856">
        <ele>837.45</ele>
        <time>2018-04-01T11:31:17Z</time>
      </trkpt>
      <trkpt lat="44.85462" lon="5.18565">
        <ele>834.56</ele>
        <time>2018-04-01T11:31:29Z</time>
      </trkpt>
      <trkpt lat="44.85462" lon="5.18571">
        <ele>832.64</ele>
        <time>2018-04-01T11:31:39Z</time>
      </trkpt>
      <trkpt lat="44.85456" lon="5.18573">
        <ele>830.24</ele>
        <time>2018-04-01T11:31:47Z</time>
      </trkpt>
      <trkpt lat="44.85449" lon="5.18579">
        <ele>827.83</ele>
        <time>2018-04-01T11:31:58Z</time>
      </trkpt>
      <trkpt lat="44.85439" lon="5.18582">
        <ele>825.43</ele>
        <time>2018-04-01T11:32:11Z</time>
      </trkpt>
      <trkpt lat="44.85436" lon="5.18583">
        <ele>824.47</ele>
        <time>2018-04-01T11:32:15Z</time>
      </trkpt>
      <trkpt lat="44.85422" lon="5.1859">
        <ele>821.58</ele>
        <time>2018-04-01T11:32:30Z</time>
      </trkpt>
      <trkpt lat="44.85413" lon="5.18593">
        <ele>818.7</ele>
        <time>2018-04-01T11:32:43Z</time>
      </trkpt>
      <trkpt lat="44.85405" lon="5.18598">
        <ele>816.78</ele>
        <time>2018-04-01T11:32:56Z</time>
      </trkpt>
      <trkpt lat="44.85399" lon="5.18601">
        <ele>815.34</ele>
        <time>2018-04-01T11:33:03Z</time>
      </trkpt>
      <trkpt lat="44.85391" lon="5.18602">
        <ele>813.89</ele>
        <time>2018-04-01T11:33:12Z</time>
      </trkpt>
      <trkpt lat="44.85384" lon="5.18602">
        <ele>813.41</ele>
        <time>2018-04-01T11:33:18Z</time>
      </trkpt>
      <trkpt lat="44.8537" lon="5.18603">
        <ele>810.53</ele>
        <time>2018-04-01T11:33:32Z</time>
      </trkpt>
      <trkpt lat="44.8536" lon="5.18604">
        <ele>808.61</ele>
        <time>2018-04-01T11:33:43Z</time>
      </trkpt>
      <trkpt lat="44.85348" lon="5.18603">
        <ele>806.68</ele>
        <time>2018-04-01T11:33:55Z</time>
      </trkpt>
      <trkpt lat="44.85334" lon="5.18607">
        <ele>804.76</ele>
        <time>2018-04-01T11:34:09Z</time>
      </trkpt>
      <trkpt lat="44.8533" lon="5.18611">
        <ele>805.24</ele>
        <time>2018-04-01T11:34:15Z</time>
      </trkpt>
      <trkpt lat="44.85323" lon="5.18618">
        <ele>803.8</ele>
        <time>2018-04-01T11:34:22Z</time>
      </trkpt>
      <trkpt lat="44.85309" lon="5.1862">
        <ele>802.36</ele>
        <time>2018-04-01T11:34:36Z</time>
      </trkpt>
      <trkpt lat="44.853" lon="5.18621">
        <ele>800.44</ele>
        <time>2018-04-01T11:34:48Z</time>
      </trkpt>
      <trkpt lat="44.85297" lon="5.18633">
        <ele>798.51</ele>
        <time>2018-04-01T11:34:59Z</time>
      </trkpt>
      <trkpt lat="44.85301" lon="5.18635">
        <ele>798.03</ele>
        <time>2018-04-01T11:35:04Z</time>
      </trkpt>
      <trkpt lat="44.85308" lon="5.18639">
        <ele>796.11</ele>
        <time>2018-04-01T11:35:15Z</time>
      </trkpt>
      <trkpt lat="44.85301" lon="5.18641">
        <ele>793.71</ele>
        <time>2018-04-01T11:35:26Z</time>
      </trkpt>
      <trkpt lat="44.85295" lon="5.18648">
        <ele>791.78</ele>
        <time>2018-04-01T11:35:39Z</time>
      </trkpt>
      <trkpt lat="44.85293" lon="5.18648">
        <ele>791.3</ele>
        <time>2018-04-01T11:35:57Z</time>
      </trkpt>
      <trkpt lat="44.85294" lon="5.18647">
        <ele>791.3</ele>
        <time>2018-04-01T11:36:15Z</time>
      </trkpt>
      <trkpt lat="44.85289" lon="5.18647">
        <ele>790.82</ele>
        <time>2018-04-01T11:36:21Z</time>
      </trkpt>
      <trkpt lat="44.85287" lon="5.18647">
        <ele>790.34</ele>
        <time>2018-04-01T11:36:23Z</time>
      </trkpt>
      <trkpt lat="44.85278" lon="5.18651">
        <ele>787.46</ele>
        <time>2018-04-01T11:36:37Z</time>
      </trkpt>
      <trkpt lat="44.85275" lon="5.18654">
        <ele>786.98</ele>
        <time>2018-04-01T11:36:41Z</time>
      </trkpt>
      <trkpt lat="44.85265" lon="5.18658">
        <ele>783.61</ele>
        <time>2018-04-01T11:36:53Z</time>
      </trkpt>
      <trkpt lat="44.85253" lon="5.18661">
        <ele>781.69</ele>
        <time>2018-04-01T11:37:06Z</time>
      </trkpt>
      <trkpt lat="44.85244" lon="5.18663">
        <ele>778.81</ele>
        <time>2018-04-01T11:37:19Z</time>
      </trkpt>
      <trkpt lat="44.85247" lon="5.18671">
        <ele>777.36</ele>
        <time>2018-04-01T11:37:31Z</time>
      </trkpt>
      <trkpt lat="44.85243" lon="5.18676">
        <ele>774.96</ele>
        <time>2018-04-01T11:37:43Z</time>
      </trkpt>
      <trkpt lat="44.85229" lon="5.18676">
        <ele>773.04</ele>
        <time>2018-04-01T11:37:58Z</time>
      </trkpt>
      <trkpt lat="44.85219" lon="5.1868">
        <ele>771.11</ele>
        <time>2018-04-01T11:38:10Z</time>
      </trkpt>
      <trkpt lat="44.85218" lon="5.1868">
        <ele>770.63</ele>
        <time>2018-04-01T11:38:11Z</time>
      </trkpt>
      <trkpt lat="44.85211" lon="5.18681">
        <ele>769.67</ele>
        <time>2018-04-01T11:38:18Z</time>
      </trkpt>
      <trkpt lat="44.85201" lon="5.18684">
        <ele>767.27</ele>
        <time>2018-04-01T11:38:31Z</time>
      </trkpt>
      <trkpt lat="44.85195" lon="5.18685">
        <ele>766.79</ele>
        <time>2018-04-01T11:38:47Z</time>
      </trkpt>
      <trkpt lat="44.85197" lon="5.18692">
        <ele>765.35</ele>
        <time>2018-04-01T11:38:57Z</time>
      </trkpt>
      <trkpt lat="44.85199" lon="5.18696">
        <ele>763.42</ele>
        <time>2018-04-01T11:39:09Z</time>
      </trkpt>
      <trkpt lat="44.85197" lon="5.18695">
        <ele>762.94</ele>
        <time>2018-04-01T11:39:12Z</time>
      </trkpt>
      <trkpt lat="44.85192" lon="5.18695">
        <ele>762.46</ele>
        <time>2018-04-01T11:39:18Z</time>
      </trkpt>
      <trkpt lat="44.8518" lon="5.187">
        <ele>759.1</ele>
        <time>2018-04-01T11:39:33Z</time>
      </trkpt>
      <trkpt lat="44.85169" lon="5.18703">
        <ele>756.69</ele>
        <time>2018-04-01T11:39:46Z</time>
      </trkpt>
      <trkpt lat="44.85158" lon="5.18705">
        <ele>754.77</ele>
        <time>2018-04-01T11:39:58Z</time>
      </trkpt>
      <trkpt lat="44.85144" lon="5.18709">
        <ele>753.33</ele>
        <time>2018-04-01T11:40:12Z</time>
      </trkpt>
      <trkpt lat="44.85133" lon="5.18708">
        <ele>751.41</ele>
        <time>2018-04-01T11:40:24Z</time>
      </trkpt>
      <trkpt lat="44.85124" lon="5.18709">
        <ele>749.97</ele>
        <time>2018-04-01T11:40:38Z</time>
      </trkpt>
      <trkpt lat="44.85112" lon="5.18713">
        <ele>748.52</ele>
        <time>2018-04-01T11:40:51Z</time>
      </trkpt>
      <trkpt lat="44.85112" lon="5.18714">
        <ele>748.04</ele>
        <time>2018-04-01T11:40:52Z</time>
      </trkpt>
      <trkpt lat="44.85099" lon="5.18713">
        <ele>745.16</ele>
        <time>2018-04-01T11:41:05Z</time>
      </trkpt>
      <trkpt lat="44.85086" lon="5.18709">
        <ele>744.2</ele>
        <time>2018-04-01T11:41:19Z</time>
      </trkpt>
      <trkpt lat="44.85081" lon="5.18705">
        <ele>742.28</ele>
        <time>2018-04-01T11:41:25Z</time>
      </trkpt>
      <trkpt lat="44.85076" lon="5.18718">
        <ele>740.35</ele>
        <time>2018-04-01T11:41:38Z</time>
      </trkpt>
      <trkpt lat="44.85063" lon="5.18728">
        <ele>738.43</ele>
        <time>2018-04-01T11:41:51Z</time>
      </trkpt>
      <trkpt lat="44.85052" lon="5.18734">
        <ele>736.03</ele>
        <time>2018-04-01T11:42:04Z</time>
      </trkpt>
      <trkpt lat="44.85039" lon="5.1874">
        <ele>733.14</ele>
        <time>2018-04-01T11:42:18Z</time>
      </trkpt>
      <trkpt lat="44.85038" lon="5.18741">
        <ele>732.66</ele>
        <time>2018-04-01T11:42:19Z</time>
      </trkpt>
      <trkpt lat="44.85022" lon="5.18751">
        <ele>729.78</ele>
        <time>2018-04-01T11:42:34Z</time>
      </trkpt>
      <trkpt lat="44.85008" lon="5.18755">
        <ele>727.86</ele>
        <time>2018-04-01T11:42:48Z</time>
      </trkpt>
      <trkpt lat="44.84994" lon="5.1876">
        <ele>725.93</ele>
        <time>2018-04-01T11:43:03Z</time>
      </trkpt>
      <trkpt lat="44.8498" lon="5.18765">
        <ele>724.01</ele>
        <time>2018-04-01T11:43:17Z</time>
      </trkpt>
      <trkpt lat="44.84965" lon="5.1877">
        <ele>721.13</ele>
        <time>2018-04-01T11:43:31Z</time>
      </trkpt>
      <trkpt lat="44.84957" lon="5.18772">
        <ele>719.68</ele>
        <time>2018-04-01T11:43:40Z</time>
      </trkpt>
      <trkpt lat="44.84944" lon="5.18779">
        <ele>717.28</ele>
        <time>2018-04-01T11:43:54Z</time>
      </trkpt>
      <trkpt lat="44.84931" lon="5.18782">
        <ele>715.36</ele>
        <time>2018-04-01T11:44:09Z</time>
      </trkpt>
      <trkpt lat="44.84922" lon="5.18785">
        <ele>712.95</ele>
        <time>2018-04-01T11:44:19Z</time>
      </trkpt>
      <trkpt lat="44.8491" lon="5.18787">
        <ele>711.99</ele>
        <time>2018-04-01T11:44:32Z</time>
      </trkpt>
      <trkpt lat="44.84904" lon="5.18792">
        <ele>710.55</ele>
        <time>2018-04-01T11:44:37Z</time>
      </trkpt>
      <trkpt lat="44.84893" lon="5.18801">
        <ele>707.19</ele>
        <time>2018-04-01T11:44:50Z</time>
      </trkpt>
      <trkpt lat="44.84881" lon="5.18807">
        <ele>705.26</ele>
        <time>2018-04-01T11:45:03Z</time>
      </trkpt>
      <trkpt lat="44.84867" lon="5.18811">
        <ele>702.38</ele>
        <time>2018-04-01T11:45:17Z</time>
      </trkpt>
      <trkpt lat="44.84855" lon="5.18808">
        <ele>701.42</ele>
        <time>2018-04-01T11:45:30Z</time>
      </trkpt>
      <trkpt lat="44.84843" lon="5.18814">
        <ele>699.5</ele>
        <time>2018-04-01T11:45:42Z</time>
      </trkpt>
      <trkpt lat="44.84834" lon="5.18821">
        <ele>696.13</ele>
        <time>2018-04-01T11:45:54Z</time>
      </trkpt>
      <trkpt lat="44.84824" lon="5.18822">
        <ele>694.69</ele>
        <time>2018-04-01T11:46:04Z</time>
      </trkpt>
      <trkpt lat="44.84821" lon="5.18821">
        <ele>693.25</ele>
        <time>2018-04-01T11:46:07Z</time>
      </trkpt>
      <trkpt lat="44.84809" lon="5.18828">
        <ele>691.33</ele>
        <time>2018-04-01T11:46:19Z</time>
      </trkpt>
      <trkpt lat="44.84795" lon="5.18833">
        <ele>689.88</ele>
        <time>2018-04-01T11:46:32Z</time>
      </trkpt>
      <trkpt lat="44.84794" lon="5.18833">
        <ele>689.4</ele>
        <time>2018-04-01T11:46:33Z</time>
      </trkpt>
      <trkpt lat="44.84777" lon="5.18844">
        <ele>688.44</ele>
        <time>2018-04-01T11:46:48Z</time>
      </trkpt>
      <trkpt lat="44.84763" lon="5.18851">
        <ele>687</ele>
        <time>2018-04-01T11:47:01Z</time>
      </trkpt>
      <trkpt lat="44.84751" lon="5.18854">
        <ele>685.08</ele>
        <time>2018-04-01T11:47:13Z</time>
      </trkpt>
      <trkpt lat="44.8474" lon="5.18856">
        <ele>683.63</ele>
        <time>2018-04-01T11:47:25Z</time>
      </trkpt>
      <trkpt lat="44.84735" lon="5.18854">
        <ele>683.63</ele>
        <time>2018-04-01T11:47:33Z</time>
      </trkpt>
      <trkpt lat="44.84737" lon="5.18856">
        <ele>683.15</ele>
        <time>2018-04-01T11:47:41Z</time>
      </trkpt>
      <trkpt lat="44.84736" lon="5.18855">
        <ele>683.15</ele>
        <time>2018-04-01T11:48:12Z</time>
      </trkpt>
      <trkpt lat="44.84734" lon="5.18855">
        <ele>682.67</ele>
        <time>2018-04-01T11:48:47Z</time>
      </trkpt>
      <trkpt lat="44.84736" lon="5.18857">
        <ele>683.15</ele>
        <time>2018-04-01T11:49:26Z</time>
      </trkpt>
      <trkpt lat="44.84738" lon="5.18859">
        <ele>684.12</ele>
        <time>2018-04-01T11:49:45Z</time>
      </trkpt>
      <trkpt lat="44.84736" lon="5.18859">
        <ele>684.6</ele>
        <time>2018-04-01T11:49:59Z</time>
      </trkpt>
      <trkpt lat="44.84732" lon="5.18859">
        <ele>684.12</ele>
        <time>2018-04-01T11:50:24Z</time>
      </trkpt>
      <trkpt lat="44.84728" lon="5.18857">
        <ele>683.63</ele>
        <time>2018-04-01T11:50:28Z</time>
      </trkpt>
      <trkpt lat="44.84717" lon="5.18847">
        <ele>682.19</ele>
        <time>2018-04-01T11:50:40Z</time>
      </trkpt>
      <trkpt lat="44.84709" lon="5.18843">
        <ele>681.23</ele>
        <time>2018-04-01T11:50:47Z</time>
      </trkpt>
      <trkpt lat="44.84695" lon="5.18843">
        <ele>679.79</ele>
        <time>2018-04-01T11:51:02Z</time>
      </trkpt>
      <trkpt lat="44.84679" lon="5.1884">
        <ele>678.35</ele>
        <time>2018-04-01T11:51:16Z</time>
      </trkpt>
      <trkpt lat="44.84666" lon="5.18846">
        <ele>676.42</ele>
        <time>2018-04-01T11:51:29Z</time>
      </trkpt>
      <trkpt lat="44.84655" lon="5.1885">
        <ele>674.98</ele>
        <time>2018-04-01T11:51:40Z</time>
      </trkpt>
      <trkpt lat="44.84644" lon="5.18857">
        <ele>673.54</ele>
        <time>2018-04-01T11:51:50Z</time>
      </trkpt>
      <trkpt lat="44.8463" lon="5.18864">
        <ele>670.66</ele>
        <time>2018-04-01T11:52:05Z</time>
      </trkpt>
      <trkpt lat="44.84629" lon="5.18864">
        <ele>670.66</ele>
        <time>2018-04-01T11:52:10Z</time>
      </trkpt>
      <trkpt lat="44.84619" lon="5.18867">
        <ele>669.7</ele>
        <time>2018-04-01T11:52:22Z</time>
      </trkpt>
      <trkpt lat="44.84616" lon="5.18867">
        <ele>669.7</ele>
        <time>2018-04-01T11:52:26Z</time>
      </trkpt>
      <trkpt lat="44.84615" lon="5.18868">
        <ele>668.73</ele>
        <time>2018-04-01T11:52:35Z</time>
      </trkpt>
      <trkpt lat="44.84618" lon="5.18874">
        <ele>667.77</ele>
        <time>2018-04-01T11:53:18Z</time>
      </trkpt>
      <trkpt lat="44.84613" lon="5.18878">
        <ele>669.22</ele>
        <time>2018-04-01T11:53:50Z</time>
      </trkpt>
      <trkpt lat="44.84604" lon="5.18875">
        <ele>668.25</ele>
        <time>2018-04-01T11:54:03Z</time>
      </trkpt>
      <trkpt lat="44.84592" lon="5.18869">
        <ele>667.77</ele>
        <time>2018-04-01T11:54:15Z</time>
      </trkpt>
      <trkpt lat="44.84587" lon="5.18874">
        <ele>666.81</ele>
        <time>2018-04-01T11:54:35Z</time>
      </trkpt>
      <trkpt lat="44.84588" lon="5.18876">
        <ele>666.33</ele>
        <time>2018-04-01T11:55:02Z</time>
      </trkpt>
      <trkpt lat="44.84588" lon="5.18878">
        <ele>667.29</ele>
        <time>2018-04-01T11:55:32Z</time>
      </trkpt>
      <trkpt lat="44.84594" lon="5.18871">
        <ele>667.29</ele>
        <time>2018-04-01T11:55:59Z</time>
      </trkpt>
      <trkpt lat="44.84593" lon="5.18868">
        <ele>667.29</ele>
        <time>2018-04-01T11:56:05Z</time>
      </trkpt>
      <trkpt lat="44.8459" lon="5.18868">
        <ele>667.77</ele>
        <time>2018-04-01T11:56:23Z</time>
      </trkpt>
      <trkpt lat="44.84587" lon="5.18867">
        <ele>667.29</ele>
        <time>2018-04-01T11:56:37Z</time>
      </trkpt>
      <trkpt lat="44.84585" lon="5.18865">
        <ele>667.29</ele>
        <time>2018-04-01T11:56:59Z</time>
      </trkpt>
      <trkpt lat="44.84583" lon="5.18863">
        <ele>667.29</ele>
        <time>2018-04-01T11:57:12Z</time>
      </trkpt>
      <trkpt lat="44.8458" lon="5.18861">
        <ele>667.29</ele>
        <time>2018-04-01T11:57:16Z</time>
      </trkpt>
      <trkpt lat="44.84578" lon="5.18859">
        <ele>667.29</ele>
        <time>2018-04-01T11:57:19Z</time>
      </trkpt>
      <trkpt lat="44.84565" lon="5.18854">
        <ele>666.81</ele>
        <time>2018-04-01T11:57:32Z</time>
      </trkpt>
      <trkpt lat="44.8456" lon="5.18853">
        <ele>666.81</ele>
        <time>2018-04-01T11:57:36Z</time>
      </trkpt>
      <trkpt lat="44.84557" lon="5.18851">
        <ele>666.81</ele>
        <time>2018-04-01T11:57:39Z</time>
      </trkpt>
      <trkpt lat="44.84547" lon="5.18844">
        <ele>668.73</ele>
        <time>2018-04-01T11:57:50Z</time>
      </trkpt>
      <trkpt lat="44.84535" lon="5.18842">
        <ele>670.66</ele>
        <time>2018-04-01T11:58:02Z</time>
      </trkpt>
      <trkpt lat="44.84528" lon="5.18844">
        <ele>672.1</ele>
        <time>2018-04-01T11:58:10Z</time>
      </trkpt>
      <trkpt lat="44.8452" lon="5.18847">
        <ele>674.02</ele>
        <time>2018-04-01T11:58:20Z</time>
      </trkpt>
      <trkpt lat="44.84509" lon="5.18849">
        <ele>674.98</ele>
        <time>2018-04-01T11:58:30Z</time>
      </trkpt>
      <trkpt lat="44.84507" lon="5.18849">
        <ele>674.98</ele>
        <time>2018-04-01T11:58:32Z</time>
      </trkpt>
      <trkpt lat="44.84504" lon="5.18845">
        <ele>674.98</ele>
        <time>2018-04-01T11:58:36Z</time>
      </trkpt>
      <trkpt lat="44.845" lon="5.18845">
        <ele>674.98</ele>
        <time>2018-04-01T11:58:39Z</time>
      </trkpt>
      <trkpt lat="44.8449" lon="5.18839">
        <ele>674.98</ele>
        <time>2018-04-01T11:58:50Z</time>
      </trkpt>
      <trkpt lat="44.84479" lon="5.18831">
        <ele>675.46</ele>
        <time>2018-04-01T11:59:02Z</time>
      </trkpt>
      <trkpt lat="44.8447" lon="5.18822">
        <ele>675.94</ele>
        <time>2018-04-01T11:59:14Z</time>
      </trkpt>
      <trkpt lat="44.84468" lon="5.18805">
        <ele>672.58</ele>
        <time>2018-04-01T11:59:26Z</time>
      </trkpt>
      <trkpt lat="44.84454" lon="5.18797">
        <ele>671.14</ele>
        <time>2018-04-01T11:59:39Z</time>
      </trkpt>
      <trkpt lat="44.8444" lon="5.18796">
        <ele>669.7</ele>
        <time>2018-04-01T11:59:50Z</time>
      </trkpt>
      <trkpt lat="44.84438" lon="5.18796">
        <ele>668.73</ele>
        <time>2018-04-01T11:59:52Z</time>
      </trkpt>
      <trkpt lat="44.84424" lon="5.18795">
        <ele>667.77</ele>
        <time>2018-04-01T12:00:04Z</time>
      </trkpt>
      <trkpt lat="44.84407" lon="5.18796">
        <ele>666.33</ele>
        <time>2018-04-01T12:00:18Z</time>
      </trkpt>
      <trkpt lat="44.84396" lon="5.18801">
        <ele>664.89</ele>
        <time>2018-04-01T12:00:30Z</time>
      </trkpt>
      <trkpt lat="44.84393" lon="5.18802">
        <ele>664.41</ele>
        <time>2018-04-01T12:00:33Z</time>
      </trkpt>
      <trkpt lat="44.84383" lon="5.18803">
        <ele>663.93</ele>
        <time>2018-04-01T12:00:41Z</time>
      </trkpt>
      <trkpt lat="44.84368" lon="5.18809">
        <ele>662.49</ele>
        <time>2018-04-01T12:00:55Z</time>
      </trkpt>
      <trkpt lat="44.84354" lon="5.1881">
        <ele>661.52</ele>
        <time>2018-04-01T12:01:05Z</time>
      </trkpt>
      <trkpt lat="44.84345" lon="5.18819">
        <ele>659.12</ele>
        <time>2018-04-01T12:01:17Z</time>
      </trkpt>
      <trkpt lat="44.8433" lon="5.18823">
        <ele>657.68</ele>
        <time>2018-04-01T12:01:28Z</time>
      </trkpt>
      <trkpt lat="44.84315" lon="5.18831">
        <ele>656.72</ele>
        <time>2018-04-01T12:01:40Z</time>
      </trkpt>
      <trkpt lat="44.84314" lon="5.18832">
        <ele>656.24</ele>
        <time>2018-04-01T12:01:41Z</time>
      </trkpt>
      <trkpt lat="44.84301" lon="5.18843">
        <ele>653.83</ele>
        <time>2018-04-01T12:01:54Z</time>
      </trkpt>
      <trkpt lat="44.84292" lon="5.18848">
        <ele>652.87</ele>
        <time>2018-04-01T12:02:04Z</time>
      </trkpt>
      <trkpt lat="44.84277" lon="5.18857">
        <ele>651.43</ele>
        <time>2018-04-01T12:02:18Z</time>
      </trkpt>
      <trkpt lat="44.84273" lon="5.18861">
        <ele>651.43</ele>
        <time>2018-04-01T12:02:22Z</time>
      </trkpt>
      <trkpt lat="44.84255" lon="5.18875">
        <ele>649.99</ele>
        <time>2018-04-01T12:02:37Z</time>
      </trkpt>
      <trkpt lat="44.84238" lon="5.18879">
        <ele>649.99</ele>
        <time>2018-04-01T12:02:51Z</time>
      </trkpt>
      <trkpt lat="44.84235" lon="5.18882">
        <ele>648.55</ele>
        <time>2018-04-01T12:03:04Z</time>
      </trkpt>
      <trkpt lat="44.8423" lon="5.18876">
        <ele>646.62</ele>
        <time>2018-04-01T12:03:15Z</time>
      </trkpt>
      <trkpt lat="44.84221" lon="5.18869">
        <ele>645.66</ele>
        <time>2018-04-01T12:03:26Z</time>
      </trkpt>
      <trkpt lat="44.84216" lon="5.18862">
        <ele>644.7</ele>
        <time>2018-04-01T12:03:33Z</time>
      </trkpt>
      <trkpt lat="44.84216" lon="5.18859">
        <ele>644.7</ele>
        <time>2018-04-01T12:03:45Z</time>
      </trkpt>
      <trkpt lat="44.84216" lon="5.1886">
        <ele>644.7</ele>
        <time>2018-04-01T12:04:03Z</time>
      </trkpt>
      <trkpt lat="44.84216" lon="5.18859">
        <ele>644.7</ele>
        <time>2018-04-01T12:04:04Z</time>
      </trkpt>
      <trkpt lat="44.84223" lon="5.18844">
        <ele>643.26</ele>
        <time>2018-04-01T12:04:16Z</time>
      </trkpt>
      <trkpt lat="44.84228" lon="5.18834">
        <ele>642.78</ele>
        <time>2018-04-01T12:04:26Z</time>
      </trkpt>
      <trkpt lat="44.84226" lon="5.18818">
        <ele>641.82</ele>
        <time>2018-04-01T12:04:35Z</time>
      </trkpt>
      <trkpt lat="44.84221" lon="5.1881">
        <ele>639.89</ele>
        <time>2018-04-01T12:04:42Z</time>
      </trkpt>
      <trkpt lat="44.84209" lon="5.18807">
        <ele>637.49</ele>
        <time>2018-04-01T12:04:54Z</time>
      </trkpt>
      <trkpt lat="44.84201" lon="5.18804">
        <ele>634.13</ele>
        <time>2018-04-01T12:05:07Z</time>
      </trkpt>
      <trkpt lat="44.84192" lon="5.18804">
        <ele>631.24</ele>
        <time>2018-04-01T12:05:19Z</time>
      </trkpt>
      <trkpt lat="44.84181" lon="5.18801">
        <ele>628.84</ele>
        <time>2018-04-01T12:05:32Z</time>
      </trkpt>
      <trkpt lat="44.84177" lon="5.18802">
        <ele>627.88</ele>
        <time>2018-04-01T12:05:45Z</time>
      </trkpt>
      <trkpt lat="44.84171" lon="5.18811">
        <ele>624.51</ele>
        <time>2018-04-01T12:05:57Z</time>
      </trkpt>
      <trkpt lat="44.84158" lon="5.18819">
        <ele>621.63</ele>
        <time>2018-04-01T12:06:09Z</time>
      </trkpt>
      <trkpt lat="44.84155" lon="5.18832">
        <ele>618.26</ele>
        <time>2018-04-01T12:06:23Z</time>
      </trkpt>
      <trkpt lat="44.84167" lon="5.18837">
        <ele>615.38</ele>
        <time>2018-04-01T12:06:36Z</time>
      </trkpt>
      <trkpt lat="44.84169" lon="5.18839">
        <ele>614.9</ele>
        <time>2018-04-01T12:06:39Z</time>
      </trkpt>
      <trkpt lat="44.84175" lon="5.18837">
        <ele>613.46</ele>
        <time>2018-04-01T12:06:45Z</time>
      </trkpt>
      <trkpt lat="44.84179" lon="5.18834">
        <ele>612.02</ele>
        <time>2018-04-01T12:06:49Z</time>
      </trkpt>
      <trkpt lat="44.84185" lon="5.18842">
        <ele>609.61</ele>
        <time>2018-04-01T12:07:02Z</time>
      </trkpt>
      <trkpt lat="44.84178" lon="5.18842">
        <ele>606.73</ele>
        <time>2018-04-01T12:07:16Z</time>
      </trkpt>
      <trkpt lat="44.84172" lon="5.18853">
        <ele>603.36</ele>
        <time>2018-04-01T12:07:28Z</time>
      </trkpt>
      <trkpt lat="44.84166" lon="5.18861">
        <ele>602.4</ele>
        <time>2018-04-01T12:07:42Z</time>
      </trkpt>
      <trkpt lat="44.84154" lon="5.18868">
        <ele>599.52</ele>
        <time>2018-04-01T12:07:56Z</time>
      </trkpt>
      <trkpt lat="44.84151" lon="5.18868">
        <ele>599.04</ele>
        <time>2018-04-01T12:08:00Z</time>
      </trkpt>
      <trkpt lat="44.8414" lon="5.18876">
        <ele>595.67</ele>
        <time>2018-04-01T12:08:14Z</time>
      </trkpt>
      <trkpt lat="44.84134" lon="5.18882">
        <ele>593.27</ele>
        <time>2018-04-01T12:08:24Z</time>
      </trkpt>
      <trkpt lat="44.84133" lon="5.18892">
        <ele>589.91</ele>
        <time>2018-04-01T12:08:35Z</time>
      </trkpt>
      <trkpt lat="44.84133" lon="5.18892">
        <ele>589.91</ele>
        <time>2018-04-01T12:08:36Z</time>
      </trkpt>
      <trkpt lat="44.84133" lon="5.18897">
        <ele>588.46</ele>
        <time>2018-04-01T12:08:48Z</time>
      </trkpt>
      <trkpt lat="44.84132" lon="5.18898">
        <ele>586.54</ele>
        <time>2018-04-01T12:09:03Z</time>
      </trkpt>
      <trkpt lat="44.84132" lon="5.18899">
        <ele>587.98</ele>
        <time>2018-04-01T12:09:18Z</time>
      </trkpt>
      <trkpt lat="44.84133" lon="5.18894">
        <ele>587.02</ele>
        <time>2018-04-01T12:09:38Z</time>
      </trkpt>
    </trkseg>
  </trk>
</gpx>